Observation data for Amarillo 7 South Southeast on 02/11/2018      Previous  Date  Next       Current Mesonet Observations  Soil Data  Daily Summary Page  Observations in Plain Language
KAM1 110600Z 00015KT M10/M14 A3003 RMK A01 T10961140  RH  070%=      5-min Rain = 0
KAM1 110601Z 00015KT M10/M14 A3003 RMK A01 T10961140  RH  070%=      5-min Rain = 0
KAM1 110602Z 00015KT M10/M14 A3003 RMK A01 T10961140  RH  070%=      5-min Rain = 0
KAM1 110603Z 36013KT M10/M14 A3003 RMK A01 T10961140  RH  070%=      5-min Rain = 0
KAM1 110604Z 00014KT M10/M14 A3003 RMK A01 T10971140  RH  070%=      5-min Rain = 0
KAM1 110605Z 01013KT M10/M14 A3003 RMK A01 T10971140  RH  071%=      5-min Rain = 0
KAM1 110606Z 00012KT M10/M14 A3003 RMK A01 T10971140  RH  071%=      5-min Rain = 0
KAM1 110607Z 36011KT M10/M14 A3003 RMK A01 T10971140  RH  071%=      5-min Rain = 0
KAM1 110608Z 00013KT M10/M14 A3003 RMK A01 T10971140  RH  071%=      5-min Rain = 0
KAM1 110609Z 36010KT M10/M14 A3003 RMK A01 T10971140  RH  071%=      5-min Rain = 0
KAM1 110610Z 36011KT M10/M14 A3003 RMK A01 T10971140  RH  071%=      5-min Rain = 0
KAM1 110611Z 00013KT M10/M14 A3003 RMK A01 T10971140  RH  071%=      5-min Rain = 0
KAM1 110612Z 36012KT M10/M14 A3003 RMK A01 T10971140  RH  071%=      5-min Rain = 0
KAM1 110613Z 01014G19KT M10/M14 A3003 RMK A01 T10971140  RH  071%=      5-min Rain = 0
KAM1 110614Z 36013G19KT M10/M14 A3003 RMK A01 T10971140  RH  071%=      5-min Rain = 0
KAM1 110615Z 35014KT M10/M14 A3003 RMK A01 T10971140  RH  071%=      5-min Rain = 0
KAM1 110616Z 36014KT M10/M14 A3003 RMK A01 T10971140  RH  071%=      5-min Rain = 0
KAM1 110617Z 36013KT M10/M14 A3003 RMK A01 T10971140  RH  071%=      5-min Rain = 0
KAM1 110618Z 36013KT M10/M14 A3003 RMK A01 T10971140  RH  071%=      5-min Rain = 0
KAM1 110619Z 36014KT M10/M14 A3003 RMK A01 T10971140  RH  071%=      5-min Rain = 0
KAM1 110620Z 36017KT M10/M14 A3003 RMK A01 T10981140  RH  071%=      5-min Rain = 0
KAM1 110621Z 00014KT M10/M14 A3003 RMK A01 T10981140  RH  071%=      5-min Rain = 0
KAM1 110622Z 00011KT M10/M14 A3003 RMK A01 T10981140  RH  071%=      5-min Rain = 0
KAM1 110623Z 35011KT M10/M14 A3003 RMK A01 T10981140  RH  071%=      5-min Rain = 0
KAM1 110624Z 00013KT M10/M14 A3003 RMK A01 T10981140  RH  071%=      5-min Rain = 0
KAM1 110625Z 00012G17KT M10/M14 A3003 RMK A01 T10981140  RH  071%=      5-min Rain = 0
KAM1 110626Z 36013KT M10/M14 A3003 RMK A01 T10981139  RH  072%=      5-min Rain = 0
KAM1 110627Z 36010G15KT M10/M14 A3003 RMK A01 T10981140  RH  072%=      5-min Rain = 0
KAM1 110628Z 36011KT M10/M14 A3003 RMK A01 T10981140  RH  072%=      5-min Rain = 0
KAM1 110629Z 36011KT M10/M14 A3003 RMK A01 T10981139  RH  072%=      5-min Rain = 0
KAM1 110630Z 36011G16KT M10/M14 A3004 RMK A01 T10981139  RH  072%=      5-min Rain = 0
KAM1 110631Z 35013KT M10/M14 A3003 RMK A01 T10981139  RH  072%=      5-min Rain = 0
KAM1 110632Z 35012KT M10/M14 A3003 RMK A01 T10991140  RH  072%=      5-min Rain = 0
KAM1 110633Z 36014KT M10/M14 A3003 RMK A01 T10981139  RH  072%=      5-min Rain = 0
KAM1 110634Z 36013KT M10/M14 A3003 RMK A01 T10991139  RH  072%=      5-min Rain = 0
KAM1 110635Z 36012KT M10/M14 A3003 RMK A01 T10991139  RH  072%=      5-min Rain = 0
KAM1 110636Z 36011KT M10/M14 A3003 RMK A01 T10981139  RH  072%=      5-min Rain = 0
KAM1 110637Z 00013KT M10/M14 A3003 RMK A01 T10991139  RH  072%=      5-min Rain = 0
KAM1 110638Z 01014KT M10/M14 A3003 RMK A01 T10991139  RH  072%=      5-min Rain = 0
KAM1 110639Z 00013KT M10/M14 A3003 RMK A01 T10981139  RH  072%=      5-min Rain = 0
KAM1 110640Z 00013KT M10/M14 A3003 RMK A01 T10981139  RH  072%=      5-min Rain = 0
KAM1 110641Z 00012KT M10/M14 A3003 RMK A01 T10981139  RH  072%=      5-min Rain = 0
KAM1 110642Z 01013KT M10/M14 A3003 RMK A01 T10981139  RH  072%=      5-min Rain = 0
KAM1 110643Z 00012G17KT M10/M14 A3003 RMK A01 T10981139  RH  072%=      5-min Rain = 0
KAM1 110644Z 00015KT M10/M14 A3003 RMK A01 T10981139  RH  072%=      5-min Rain = 0
KAM1 110645Z 00013KT M10/M14 A3003 RMK A01 T10981139  RH  072%=      5-min Rain = 0
KAM1 110646Z 36011KT M10/M14 A3003 RMK A01 T10981139  RH  072%=      5-min Rain = 0
KAM1 110647Z 36011KT M10/M14 A3004 RMK A01 T10981139  RH  072%=      5-min Rain = 0
KAM1 110648Z 36012KT M10/M14 A3004 RMK A01 T10991139  RH  072%=      5-min Rain = 0
KAM1 110649Z 36013KT M10/M14 A3004 RMK A01 T10991139  RH  072%=      5-min Rain = 0
KAM1 110650Z 36011KT M10/M14 A3004 RMK A01 T10981139  RH  072%=      5-min Rain = 0
KAM1 110651Z 35011KT M10/M14 A3004 RMK A01 T10991139  RH  072%=      5-min Rain = 0
KAM1 110652Z 00012KT M10/M14 A3004 RMK A01 T10991139  RH  072%=      5-min Rain = 0
KAM1 110653Z 36013KT M10/M14 A3004 RMK A01 T10981139  RH  072%=      5-min Rain = 0
KAM1 110654Z 36010KT M10/M14 A3004 RMK A01 T10981139  RH  072%=      5-min Rain = 0
KAM1 110655Z 00013KT M10/M14 A3004 RMK A01 T10981139  RH  072%=      5-min Rain = 0
KAM1 110656Z 36013KT M10/M14 A3004 RMK A01 T10981139  RH  072%=      5-min Rain = 0
KAM1 110657Z 00012KT M10/M14 A3004 RMK A01 T10981139  RH  072%=      5-min Rain = 0
KAM1 110658Z 00012KT M10/M14 A3003 RMK A01 T10981139  RH  072%=      5-min Rain = 0
KAM1 110659Z 00012KT M10/M14 A3003 RMK A01 T10981139  RH  072%=      5-min Rain = 0
KAM1 110700Z 36012G17KT M10/M14 A3003 RMK A01 T10981139  RH  072%=      5-min Rain = 0
KAM1 110701Z 36012KT M10/M14 A3003 RMK A01 T10981139  RH  072%=      5-min Rain = 0
KAM1 110702Z 00013KT M10/M14 A3004 RMK A01 T10981139  RH  072%=      5-min Rain = 0
KAM1 110703Z 36015KT M10/M14 A3004 RMK A01 T10981139  RH  072%=      5-min Rain = 0
KAM1 110704Z 36013KT M10/M14 A3004 RMK A01 T10981139  RH  072%=      5-min Rain = 0
KAM1 110705Z 36011KT M10/M14 A3004 RMK A01 T10981139  RH  072%=      5-min Rain = 0
KAM1 110706Z 00012KT M10/M14 A3004 RMK A01 T10991139  RH  072%=      5-min Rain = 0
KAM1 110707Z 36013KT M10/M14 A3004 RMK A01 T10981139  RH  072%=      5-min Rain = 0
KAM1 110708Z 01014KT M10/M14 A3004 RMK A01 T10991139  RH  072%=      5-min Rain = 0
KAM1 110709Z 36014KT M10/M14 A3004 RMK A01 T10991139  RH  072%=      5-min Rain = 0
KAM1 110710Z 01014KT M10/M14 A3004 RMK A01 T10981139  RH  072%=      5-min Rain = 0
KAM1 110711Z 00015KT M10/M14 A3003 RMK A01 T10991139  RH  072%=      5-min Rain = 0
KAM1 110712Z 00016KT M10/M14 A3003 RMK A01 T10991139  RH  072%=      5-min Rain = 0
KAM1 110713Z 00012KT M10/M14 A3003 RMK A01 T10981139  RH  072%=      5-min Rain = 0
KAM1 110714Z 00013KT M10/M14 A3003 RMK A01 T10991139  RH  072%=      5-min Rain = 0
KAM1 110715Z 00010KT M10/M14 A3003 RMK A01 T10991139  RH  072%=      5-min Rain = 0
KAM1 110716Z 00010KT M10/M14 A3003 RMK A01 T10991139  RH  072%=      5-min Rain = 0
KAM1 110717Z 35008KT M10/M14 A3004 RMK A01 T10991139  RH  073%=      5-min Rain = 0
KAM1 110718Z 01010KT M10/M14 A3004 RMK A01 T11001140  RH  073%=      5-min Rain = 0
KAM1 110719Z 01009KT M10/M14 A3004 RMK A01 T11001140  RH  073%=      5-min Rain = 0
KAM1 110720Z 00011KT M10/M14 A3004 RMK A01 T11001140  RH  073%=      5-min Rain = 0
KAM1 110721Z 00011KT M10/M14 A3004 RMK A01 T11001139  RH  073%=      5-min Rain = 0
KAM1 110722Z 01012KT M10/M14 A3004 RMK A01 T11001140  RH  073%=      5-min Rain = 0
KAM1 110723Z 00011KT M10/M14 A3004 RMK A01 T11001139  RH  073%=      5-min Rain = 0
KAM1 110724Z 01010KT M10/M14 A3004 RMK A01 T11001139  RH  073%=      5-min Rain = 0
KAM1 110725Z 01011KT M10/M14 A3004 RMK A01 T11001140  RH  073%=      5-min Rain = 0
KAM1 110726Z 01010KT M10/M14 A3004 RMK A01 T11001140  RH  073%=      5-min Rain = 0
KAM1 110727Z 01011KT M10/M14 A3004 RMK A01 T11001139  RH  073%=      5-min Rain = 0
KAM1 110728Z 00012KT M10/M14 A3004 RMK A01 T11001139  RH  073%=      5-min Rain = 0
KAM1 110729Z 00010KT M10/M14 A3004 RMK A01 T11001139  RH  073%=      5-min Rain = 0
KAM1 110730Z 01009KT M10/M14 A3004 RMK A01 T11001139  RH  073%=      5-min Rain = 0
KAM1 110731Z 01008KT M10/M14 A3004 RMK A01 T11001139  RH  073%=      5-min Rain = 0
KAM1 110732Z 00009KT M10/M14 A3004 RMK A01 T11011140  RH  073%=      5-min Rain = 0
KAM1 110733Z 01008KT M10/M14 A3004 RMK A01 T11011140  RH  073%=      5-min Rain = 0
KAM1 110734Z 01009KT M10/M14 A3004 RMK A01 T11011139  RH  073%=      5-min Rain = 0
KAM1 110735Z 00010KT M10/M14 A3004 RMK A01 T11011139  RH  073%=      5-min Rain = 0
KAM1 110736Z 00010KT M10/M14 A3004 RMK A01 T11011140  RH  073%=      5-min Rain = 0
KAM1 110737Z 36009KT M10/M14 A3004 RMK A01 T11011139  RH  074%=      5-min Rain = 0
KAM1 110738Z 00010KT M10/M14 A3004 RMK A01 T11011139  RH  074%=      5-min Rain = 0
KAM1 110739Z 36007KT M10/M14 A3004 RMK A01 T11011139  RH  074%=      5-min Rain = 0
KAM1 110740Z 36009KT M10/M14 A3005 RMK A01 T11011139  RH  074%=      5-min Rain = 0
KAM1 110741Z 36009KT M10/M14 A3005 RMK A01 T11011139  RH  074%=      5-min Rain = 0
KAM1 110742Z 01008KT M10/M14 A3005 RMK A01 T11011139  RH  074%=      5-min Rain = 0
KAM1 110743Z 36008KT M10/M14 A3005 RMK A01 T11011139  RH  074%=      5-min Rain = 0
KAM1 110744Z 00011KT M10/M14 A3005 RMK A01 T11011139  RH  074%=      5-min Rain = 0
KAM1 110745Z 00012KT M10/M14 A3005 RMK A01 T11001139  RH  074%=      5-min Rain = 0
KAM1 110746Z 00011KT M10/M14 A3005 RMK A01 T11001139  RH  073%=      5-min Rain = 0
KAM1 110747Z 00011KT M10/M14 A3005 RMK A01 T11001139  RH  073%=      5-min Rain = 0
KAM1 110748Z 00009KT M10/M14 A3005 RMK A01 T11001139  RH  073%=      5-min Rain = 0
KAM1 110749Z 36010KT M10/M14 A3005 RMK A01 T11001139  RH  073%=      5-min Rain = 0
KAM1 110750Z 36010KT M10/M14 A3005 RMK A01 T11001139  RH  073%=      5-min Rain = 0
KAM1 110751Z 36012KT M10/M14 A3005 RMK A01 T11001138  RH  074%=      5-min Rain = 0
KAM1 110752Z 35013KT M10/M14 A3005 RMK A01 T11001139  RH  074%=      5-min Rain = 0
KAM1 110753Z 01013KT M10/M14 A3005 RMK A01 T11001139  RH  074%=      5-min Rain = 0
KAM1 110754Z 00012KT M10/M14 A3004 RMK A01 T11001139  RH  074%=      5-min Rain = 0
KAM1 110755Z 36011KT M10/M14 A3005 RMK A01 T11001139  RH  073%=      5-min Rain = 0
KAM1 110756Z 35010KT M10/M14 A3005 RMK A01 T11001139  RH  073%=      5-min Rain = 0
KAM1 110757Z 35011KT M10/M14 A3005 RMK A01 T11011139  RH  073%=      5-min Rain = 0
KAM1 110758Z 35010KT M10/M14 A3005 RMK A01 T11011139  RH  074%=      5-min Rain = 0
KAM1 110759Z 36010KT M10/M14 A3005 RMK A01 T11011139  RH  074%=      5-min Rain = 0
KAM1 110800Z 35011KT M10/M14 A3005 RMK A01 T11021140  RH  074%=      5-min Rain = 0
KAM1 110801Z 00009KT M10/M14 A3005 RMK A01 T11021139  RH  074%=      5-min Rain = 0
KAM1 110802Z 36010KT M10/M14 A3005 RMK A01 T11021139  RH  074%=      5-min Rain = 0
KAM1 110803Z 36012KT M10/M14 A3005 RMK A01 T11021140  RH  074%=      5-min Rain = 0
KAM1 110804Z 35012KT M10/M14 A3005 RMK A01 T11021140  RH  074%=      5-min Rain = 0
KAM1 110805Z 35011KT M10/M14 A3005 RMK A01 T11021139  RH  074%=      5-min Rain = 0
KAM1 110806Z 35012KT M10/M14 A3005 RMK A01 T11021139  RH  074%=      5-min Rain = 0
KAM1 110807Z 35011KT M10/M14 A3005 RMK A01 T11021139  RH  074%=      5-min Rain = 0
KAM1 110808Z 35010KT M10/M14 A3005 RMK A01 T11021139  RH  074%=      5-min Rain = 0
KAM1 110809Z 36010KT M10/M14 A3005 RMK A01 T11021139  RH  074%=      5-min Rain = 0
KAM1 110810Z 35011KT M10/M14 A3005 RMK A01 T11021140  RH  074%=      5-min Rain = 0
KAM1 110811Z 35010KT M10/M14 A3005 RMK A01 T11021140  RH  074%=      5-min Rain = 0
KAM1 110812Z 36008KT M10/M14 A3005 RMK A01 T11021140  RH  074%=      5-min Rain = 0
KAM1 110813Z 35010KT M10/M14 A3005 RMK A01 T11031141  RH  074%=      5-min Rain = 0
KAM1 110814Z 35009KT M10/M14 A3005 RMK A01 T11041141  RH  074%=      5-min Rain = 0
KAM1 110815Z 35008KT M10/M14 A3005 RMK A01 T11031140  RH  074%=      5-min Rain = 0
KAM1 110816Z 35008KT M10/M14 A3005 RMK A01 T11041140  RH  074%=      5-min Rain = 0
KAM1 110817Z 35009KT M10/M14 A3005 RMK A01 T11041140  RH  074%=      5-min Rain = 0
KAM1 110818Z 35008KT M10/M14 A3005 RMK A01 T11031140  RH  075%=      5-min Rain = 0
KAM1 110819Z 35009KT M10/M14 A3005 RMK A01 T11031140  RH  075%=      5-min Rain = 0
KAM1 110820Z 35009KT M10/M14 A3005 RMK A01 T11041140  RH  075%=      5-min Rain = 0
KAM1 110821Z 35008KT M10/M14 A3005 RMK A01 T11041140  RH  075%=      5-min Rain = 0
KAM1 110822Z 35008KT M10/M14 A3005 RMK A01 T11041140  RH  075%=      5-min Rain = 0
KAM1 110823Z 35007KT M10/M14 A3005 RMK A01 T11041141  RH  075%=      5-min Rain = 0
KAM1 110824Z 34007KT M11/M14 A3005 RMK A01 T11051141  RH  075%=      5-min Rain = 0
KAM1 110825Z 34008KT M11/M14 A3005 RMK A01 T11051141  RH  075%=      5-min Rain = 0
KAM1 110826Z 35008KT M11/M14 A3005 RMK A01 T11051141  RH  075%=      5-min Rain = 0
KAM1 110827Z 35007KT M11/M14 A3005 RMK A01 T11051141  RH  075%=      5-min Rain = 0
KAM1 110828Z 35007KT M11/M14 A3005 RMK A01 T11051141  RH  075%=      5-min Rain = 0
KAM1 110829Z 35006KT M11/M14 A3005 RMK A01 T11051141  RH  075%=      5-min Rain = 0
KAM1 110830Z 34007KT M11/M14 A3006 RMK A01 T11051141  RH  075%=      5-min Rain = 0
KAM1 110831Z 34008KT M11/M14 A3006 RMK A01 T11051141  RH  075%=      5-min Rain = 0
KAM1 110832Z 35008KT M11/M14 A3006 RMK A01 T11051141  RH  075%=      5-min Rain = 0
KAM1 110833Z 35008KT M11/M14 A3006 RMK A01 T11051140  RH  075%=      5-min Rain = 0
KAM1 110834Z 34009KT M11/M14 A3006 RMK A01 T11051140  RH  075%=      5-min Rain = 0
KAM1 110835Z 35009KT M10/M14 A3005 RMK A01 T11041140  RH  075%=      5-min Rain = 0
KAM1 110836Z 36007KT M10/M14 A3005 RMK A01 T11041140  RH  075%=      5-min Rain = 0
KAM1 110837Z 35007KT M10/M14 A3005 RMK A01 T11041140  RH  075%=      5-min Rain = 0
KAM1 110838Z 35007KT M10/M14 A3005 RMK A01 T11041140  RH  075%=      5-min Rain = 0
KAM1 110839Z 34008KT M11/M14 A3005 RMK A01 T11051141  RH  075%=      5-min Rain = 0
KAM1 110840Z 34009KT M11/M14 A3005 RMK A01 T11051140  RH  075%=      5-min Rain = 0
KAM1 110841Z 34009KT M10/M14 A3005 RMK A01 T11041140  RH  075%=      5-min Rain = 0
KAM1 110842Z 35008KT M10/M14 A3005 RMK A01 T11041139  RH  075%=      5-min Rain = 0
KAM1 110843Z 35010KT M10/M14 A3005 RMK A01 T11041139  RH  075%=      5-min Rain = 0
KAM1 110844Z 34008KT M10/M14 A3005 RMK A01 T11041140  RH  075%=      5-min Rain = 0
KAM1 110845Z 34008KT M10/M14 A3005 RMK A01 T11041140  RH  075%=      5-min Rain = 0
KAM1 110846Z 35010KT M10/M14 A3005 RMK A01 T11031140  RH  075%=      5-min Rain = 0
KAM1 110847Z 34011KT M10/M14 A3005 RMK A01 T11031140  RH  075%=      5-min Rain = 0
KAM1 110848Z 34009KT M10/M14 A3005 RMK A01 T11041140  RH  075%=      5-min Rain = 0
KAM1 110849Z 35007KT M10/M14 A3005 RMK A01 T11041140  RH  075%=      5-min Rain = 0
KAM1 110850Z 34007KT M10/M14 A3005 RMK A01 T11041140  RH  075%=      5-min Rain = 0
KAM1 110851Z 35008KT M10/M14 A3005 RMK A01 T11041141  RH  074%=      5-min Rain = 0
KAM1 110852Z 34007KT M11/M14 A3005 RMK A01 T11051141  RH  075%=      5-min Rain = 0
KAM1 110853Z 35007KT M11/M14 A3005 RMK A01 T11051141  RH  075%=      5-min Rain = 0
KAM1 110854Z 35007KT M11/M14 A3005 RMK A01 T11051141  RH  075%=      5-min Rain = 0
KAM1 110855Z 35009KT M11/M14 A3005 RMK A01 T11051141  RH  075%=      5-min Rain = 0
KAM1 110856Z 35010KT M11/M14 A3005 RMK A01 T11051140  RH  075%=      5-min Rain = 0
KAM1 110857Z 35010KT M10/M14 A3005 RMK A01 T11041139  RH  075%=      5-min Rain = 0
KAM1 110858Z 35010KT M10/M14 A3005 RMK A01 T11031139  RH  075%=      5-min Rain = 0
KAM1 110859Z 35009KT M10/M14 A3005 RMK A01 T11031139  RH  075%=      5-min Rain = 0
KAM1 110900Z 35008KT M10/M14 A3005 RMK A01 T11031139  RH  075%=      5-min Rain = 0
KAM1 110901Z 35009KT M10/M14 A3005 RMK A01 T11031139  RH  075%=      5-min Rain = 0
KAM1 110902Z 35008KT M10/M14 A3005 RMK A01 T11031139  RH  074%=      5-min Rain = 0
KAM1 110903Z 35008KT M10/M14 A3005 RMK A01 T11031139  RH  074%=      5-min Rain = 0
KAM1 110904Z 36007KT M10/M14 A3004 RMK A01 T11021139  RH  074%=      5-min Rain = 0
KAM1 110905Z 35008KT M10/M14 A3004 RMK A01 T11031139  RH  074%=      5-min Rain = 0
KAM1 110906Z 35008KT M10/M14 A3004 RMK A01 T11031139  RH  074%=      5-min Rain = 0
KAM1 110907Z 35009KT M10/M14 A3004 RMK A01 T11021139  RH  074%=      5-min Rain = 0
KAM1 110908Z 35010KT M10/M14 A3005 RMK A01 T11021139  RH  074%=      5-min Rain = 0
KAM1 110909Z 36009KT M10/M14 A3005 RMK A01 T11021139  RH  074%=      5-min Rain = 0
KAM1 110910Z 35008KT M10/M14 A3005 RMK A01 T11021139  RH  074%=      5-min Rain = 0
KAM1 110911Z 35009KT M10/M14 A3005 RMK A01 T11021139  RH  074%=      5-min Rain = 0
KAM1 110912Z 35010KT M10/M14 A3005 RMK A01 T11021139  RH  074%=      5-min Rain = 0
KAM1 110913Z 36010KT M10/M14 A3005 RMK A01 T11021139  RH  074%=      5-min Rain = 0
KAM1 110914Z 35010KT M10/M14 A3005 RMK A01 T11011139  RH  074%=      5-min Rain = 0
KAM1 110915Z 35010KT M10/M14 A3005 RMK A01 T11011139  RH  074%=      5-min Rain = 0
KAM1 110916Z 35008KT M10/M14 A3005 RMK A01 T11011139  RH  074%=      5-min Rain = 0
KAM1 110917Z 35009KT M10/M14 A3005 RMK A01 T11011139  RH  074%=      5-min Rain = 0
KAM1 110918Z 35009KT M10/M14 A3004 RMK A01 T11011139  RH  074%=      5-min Rain = 0
KAM1 110919Z 35008KT M10/M14 A3004 RMK A01 T11011139  RH  074%=      5-min Rain = 0
KAM1 110920Z 00009KT M10/M14 A3004 RMK A01 T11011139  RH  074%=      5-min Rain = 0
KAM1 110921Z 35010KT M10/M14 A3004 RMK A01 T11011139  RH  074%=      5-min Rain = 0
KAM1 110922Z 35008KT M10/M14 A3004 RMK A01 T11011139  RH  074%=      5-min Rain = 0
KAM1 110923Z 35009KT M10/M14 A3004 RMK A01 T11011139  RH  074%=      5-min Rain = 0
KAM1 110924Z 35009KT M10/M14 A3004 RMK A01 T11011139  RH  073%=      5-min Rain = 0
KAM1 110925Z 35008KT M10/M14 A3004 RMK A01 T11001139  RH  073%=      5-min Rain = 0
KAM1 110926Z 35008KT M10/M14 A3004 RMK A01 T11001139  RH  073%=      5-min Rain = 0
KAM1 110927Z 34008KT M10/M14 A3004 RMK A01 T11001139  RH  073%=      5-min Rain = 0
KAM1 110928Z 35007KT M10/M14 A3004 RMK A01 T11001139  RH  073%=      5-min Rain = 0
KAM1 110929Z 35008KT M10/M14 A3004 RMK A01 T11001139  RH  073%=      5-min Rain = 0
KAM1 110930Z 34009KT M10/M14 A3004 RMK A01 T11001139  RH  073%=      5-min Rain = 0
KAM1 110931Z 34009KT M10/M14 A3004 RMK A01 T11001139  RH  073%=      5-min Rain = 0
KAM1 110932Z 35008KT M10/M14 A3004 RMK A01 T11001139  RH  073%=      5-min Rain = 0
KAM1 110933Z 35009KT M10/M14 A3004 RMK A01 T11001139  RH  073%=      5-min Rain = 0
KAM1 110934Z 35011KT M10/M14 A3004 RMK A01 T11001139  RH  073%=      5-min Rain = 0
KAM1 110935Z 35008KT M10/M14 A3005 RMK A01 T11001140  RH  073%=      5-min Rain = 0
KAM1 110936Z 35008KT M10/M14 A3005 RMK A01 T11001140  RH  072%=      5-min Rain = 0
KAM1 110937Z 35010KT M10/M14 A3005 RMK A01 T11001140  RH  072%=      5-min Rain = 0
KAM1 110938Z 34010KT M10/M14 A3005 RMK A01 T11001140  RH  072%=      5-min Rain = 0
KAM1 110939Z 35009KT M10/M14 A3005 RMK A01 T11001140  RH  072%=      5-min Rain = 0
KAM1 110940Z 35009KT M10/M14 A3005 RMK A01 T10991140  RH  072%=      5-min Rain = 0
KAM1 110941Z 34008KT M10/M14 A3005 RMK A01 T10991140  RH  072%=      5-min Rain = 0
KAM1 110942Z 35009KT M10/M14 A3005 RMK A01 T10991140  RH  072%=      5-min Rain = 0
KAM1 110943Z 34009KT M10/M14 A3005 RMK A01 T11001141  RH  072%=      5-min Rain = 0
KAM1 110944Z 34010KT M10/M14 A3005 RMK A01 T10991140  RH  072%=      5-min Rain = 0
KAM1 110945Z 34011KT M10/M14 A3005 RMK A01 T10991140  RH  072%=      5-min Rain = 0
KAM1 110946Z 34010KT M10/M14 A3005 RMK A01 T10991141  RH  072%=      5-min Rain = 0
KAM1 110947Z 35011KT M10/M14 A3005 RMK A01 T10991141  RH  072%=      5-min Rain = 0
KAM1 110948Z 34011KT M10/M14 A3005 RMK A01 T10991141  RH  072%=      5-min Rain = 0
KAM1 110949Z 35011KT M10/M14 A3005 RMK A01 T10991141  RH  072%=      5-min Rain = 0
KAM1 110950Z 34010KT M10/M14 A3005 RMK A01 T10991141  RH  071%=      5-min Rain = 0
KAM1 110951Z 35012KT M10/M14 A3005 RMK A01 T10991141  RH  071%=      5-min Rain = 0
KAM1 110952Z 34011KT M10/M14 A3005 RMK A01 T10991141  RH  072%=      5-min Rain = 0
KAM1 110953Z 34012KT M10/M14 A3006 RMK A01 T10991141  RH  072%=      5-min Rain = 0
KAM1 110954Z 34010KT M10/M14 A3006 RMK A01 T10991141  RH  071%=      5-min Rain = 0
KAM1 110955Z 35010KT M10/M14 A3006 RMK A01 T10991141  RH  072%=      5-min Rain = 0
KAM1 110956Z 34011KT M10/M14 A3006 RMK A01 T10991141  RH  072%=      5-min Rain = 0
KAM1 110957Z 34009KT M10/M14 A3006 RMK A01 T10991141  RH  072%=      5-min Rain = 0
KAM1 110958Z 34012KT M10/M14 A3006 RMK A01 T10991141  RH  072%=      5-min Rain = 0
KAM1 110959Z 34011KT M10/M14 A3006 RMK A01 T10991141  RH  071%=      5-min Rain = 0
KAM1 111000Z 34011KT M10/M14 A3006 RMK A01 T11001142  RH  071%=      5-min Rain = 0
KAM1 111001Z 34010KT M10/M14 A3006 RMK A01 T10991141  RH  071%=      5-min Rain = 0
KAM1 111002Z 35012KT M10/M14 A3006 RMK A01 T10991141  RH  071%=      5-min Rain = 0
KAM1 111003Z 34011KT M10/M14 A3006 RMK A01 T10991142  RH  071%=      5-min Rain = 0
KAM1 111004Z 34009KT M10/M14 A3006 RMK A01 T11001142  RH  071%=      5-min Rain = 0
KAM1 111005Z 35008KT M10/M14 A3006 RMK A01 T10991141  RH  071%=      5-min Rain = 0
KAM1 111006Z 34011KT M10/M14 A3006 RMK A01 T10991142  RH  071%=      5-min Rain = 0
KAM1 111007Z 35012KT M10/M14 A3006 RMK A01 T11001142  RH  071%=      5-min Rain = 0
KAM1 111008Z 35010KT M10/M14 A3006 RMK A01 T10991141  RH  071%=      5-min Rain = 0
KAM1 111009Z 35009KT M10/M14 A3006 RMK A01 T10991141  RH  071%=      5-min Rain = 0
KAM1 111010Z 34008KT M10/M14 A3006 RMK A01 T10991141  RH  072%=      5-min Rain = 0
KAM1 111011Z 35011KT M10/M14 A3006 RMK A01 T10991141  RH  072%=      5-min Rain = 0
KAM1 111012Z 35011KT M10/M14 A3006 RMK A01 T10991141  RH  072%=      5-min Rain = 0
KAM1 111013Z 34010KT M10/M14 A3006 RMK A01 T10991141  RH  071%=      5-min Rain = 0
KAM1 111014Z 34009KT M10/M14 A3006 RMK A01 T10991141  RH  071%=      5-min Rain = 0
KAM1 111015Z 34009KT M10/M14 A3006 RMK A01 T10991141  RH  071%=      5-min Rain = 0
KAM1 111016Z 35011KT M10/M14 A3006 RMK A01 T10981141  RH  071%=      5-min Rain = 0
KAM1 111017Z 35010KT M10/M14 A3006 RMK A01 T10991141  RH  071%=      5-min Rain = 0
KAM1 111018Z 35011KT M10/M14 A3006 RMK A01 T10991141  RH  071%=      5-min Rain = 0
KAM1 111019Z 34012KT M10/M14 A3006 RMK A01 T10981141  RH  071%=      5-min Rain = 0
KAM1 111020Z 35009KT M10/M14 A3006 RMK A01 T10981141  RH  071%=      5-min Rain = 0
KAM1 111021Z 34009KT M10/M14 A3006 RMK A01 T10981141  RH  071%=      5-min Rain = 0
KAM1 111022Z 34011KT M10/M14 A3007 RMK A01 T10981141  RH  071%=      5-min Rain = 0
KAM1 111023Z 34010KT M10/M14 A3007 RMK A01 T10981141  RH  071%=      5-min Rain = 0
KAM1 111024Z 34009KT M10/M14 A3006 RMK A01 T10981141  RH  071%=      5-min Rain = 0
KAM1 111025Z 34009KT M10/M14 A3006 RMK A01 T10981141  RH  071%=      5-min Rain = 0
KAM1 111026Z 35008KT M10/M14 A3006 RMK A01 T10981141  RH  071%=      5-min Rain = 0
KAM1 111027Z 35010KT M10/M14 A3006 RMK A01 T10981141  RH  071%=      5-min Rain = 0
KAM1 111028Z 34008KT M10/M14 A3006 RMK A01 T10981141  RH  071%=      5-min Rain = 0
KAM1 111029Z 33010KT M10/M14 A3006 RMK A01 T10971140  RH  071%=      5-min Rain = 0
KAM1 111030Z 34009KT M10/M14 A3006 RMK A01 T10981141  RH  071%=      5-min Rain = 0
KAM1 111031Z 34012KT M10/M14 A3007 RMK A01 T10981141  RH  071%=      5-min Rain = 0
KAM1 111032Z 34012KT M10/M14 A3007 RMK A01 T10971141  RH  071%=      5-min Rain = 0
KAM1 111033Z 34009KT M10/M14 A3007 RMK A01 T10971140  RH  071%=      5-min Rain = 0
KAM1 111034Z 34010KT M10/M14 A3007 RMK A01 T10971141  RH  070%=      5-min Rain = 0
KAM1 111035Z 34010KT M10/M14 A3007 RMK A01 T10971141  RH  070%=      5-min Rain = 0
KAM1 111036Z 34010KT M10/M14 A3007 RMK A01 T10971141  RH  070%=      5-min Rain = 0
KAM1 111037Z 34009KT M10/M14 A3007 RMK A01 T10971141  RH  070%=      5-min Rain = 0
KAM1 111038Z 34011KT M10/M14 A3007 RMK A01 T10971141  RH  071%=      5-min Rain = 0
KAM1 111039Z 33011KT M10/M14 A3007 RMK A01 T10971140  RH  071%=      5-min Rain = 0
KAM1 111040Z 34010KT M10/M14 A3007 RMK A01 T10971140  RH  071%=      5-min Rain = 0
KAM1 111041Z 35010KT M10/M14 A3007 RMK A01 T10971140  RH  071%=      5-min Rain = 0
KAM1 111042Z 34009KT M10/M14 A3007 RMK A01 T10971141  RH  071%=      5-min Rain = 0
KAM1 111043Z 34009KT M10/M14 A3007 RMK A01 T10971140  RH  071%=      5-min Rain = 0
KAM1 111044Z 34012KT M10/M14 A3006 RMK A01 T10971140  RH  071%=      5-min Rain = 0
KAM1 111045Z 34012KT M10/M14 A3007 RMK A01 T10971141  RH  070%=      5-min Rain = 0
KAM1 111046Z 34011KT M10/M14 A3007 RMK A01 T10971141  RH  070%=      5-min Rain = 0
KAM1 111047Z 34013KT M10/M14 A3007 RMK A01 T10961141  RH  070%=      5-min Rain = 0
KAM1 111048Z 34011KT M10/M14 A3006 RMK A01 T10971141  RH  070%=      5-min Rain = 0
KAM1 111049Z 34012KT M10/M14 A3007 RMK A01 T10971141  RH  070%=      5-min Rain = 0
KAM1 111050Z 34013KT M10/M14 A3006 RMK A01 T10971141  RH  070%=      5-min Rain = 0
KAM1 111051Z 34012KT M10/M14 A3006 RMK A01 T10971141  RH  070%=      5-min Rain = 0
KAM1 111052Z 34011KT M10/M14 A3007 RMK A01 T10971141  RH  070%=      5-min Rain = 0
KAM1 111053Z 34013KT M10/M14 A3007 RMK A01 T10971141  RH  070%=      5-min Rain = 0
KAM1 111054Z 34012KT M10/M14 A3006 RMK A01 T10971141  RH  070%=      5-min Rain = 0
KAM1 111055Z 34013KT M10/M14 A3007 RMK A01 T10971141  RH  070%=      5-min Rain = 0
KAM1 111056Z 34014KT M10/M14 A3007 RMK A01 T10971141  RH  070%=      5-min Rain = 0
KAM1 111057Z 34012KT M10/M14 A3007 RMK A01 T10971141  RH  070%=      5-min Rain = 0
KAM1 111058Z 34009KT M10/M14 A3007 RMK A01 T10971142  RH  070%=      5-min Rain = 0
KAM1 111059Z 34009KT M10/M14 A3007 RMK A01 T10971142  RH  070%=      5-min Rain = 0
KAM1 111100Z 34010KT M10/M14 A3007 RMK A01 T10971141  RH  070%=      5-min Rain = 0
KAM1 111101Z 34011KT M10/M14 A3007 RMK A01 T10981142  RH  070%=      5-min Rain = 0
KAM1 111102Z 34008KT M10/M14 A3007 RMK A01 T10981142  RH  070%=      5-min Rain = 0
KAM1 111103Z 33009KT M10/M14 A3007 RMK A01 T10971141  RH  070%=      5-min Rain = 0
KAM1 111104Z 33009KT M10/M14 A3007 RMK A01 T10971141  RH  070%=      5-min Rain = 0
KAM1 111105Z 33009KT M10/M14 A3007 RMK A01 T10971141  RH  070%=      5-min Rain = 0
KAM1 111106Z 33009KT M10/M14 A3007 RMK A01 T10971141  RH  070%=      5-min Rain = 0
KAM1 111107Z 33008KT M10/M14 A3007 RMK A01 T10971141  RH  070%=      5-min Rain = 0
KAM1 111108Z 33006KT M10/M14 A3007 RMK A01 T10971141  RH  070%=      5-min Rain = 0
KAM1 111109Z 34008KT M10/M14 A3007 RMK A01 T10971141  RH  070%=      5-min Rain = 0
KAM1 111110Z 34011KT M10/M14 A3008 RMK A01 T10971141  RH  071%=      5-min Rain = 0
KAM1 111111Z 34009KT M10/M14 A3008 RMK A01 T10971141  RH  070%=      5-min Rain = 0
KAM1 111112Z 33007KT M10/M14 A3008 RMK A01 T10971141  RH  070%=      5-min Rain = 0
KAM1 111113Z 33008KT M10/M14 A3008 RMK A01 T10971141  RH  070%=      5-min Rain = 0
KAM1 111114Z 34008KT M10/M14 A3008 RMK A01 T10971141  RH  070%=      5-min Rain = 0
KAM1 111115Z 33007KT M10/M14 A3008 RMK A01 T10971141  RH  070%=      5-min Rain = 0
KAM1 111116Z 33008KT M10/M14 A3009 RMK A01 T10971141  RH  070%=      5-min Rain = 0
KAM1 111117Z 33008KT M10/M14 A3009 RMK A01 T10971141  RH  070%=      5-min Rain = 0
KAM1 111118Z 33006KT M10/M14 A3008 RMK A01 T10971141  RH  070%=      5-min Rain = 0
KAM1 111119Z 33010KT M10/M14 A3009 RMK A01 T10971141  RH  070%=      5-min Rain = 0
KAM1 111120Z 33010KT M10/M14 A3008 RMK A01 T10971141  RH  070%=      5-min Rain = 0
KAM1 111121Z 33008KT M10/M14 A3008 RMK A01 T10971140  RH  070%=      5-min Rain = 0
KAM1 111122Z 33009KT M10/M14 A3008 RMK A01 T10971141  RH  070%=      5-min Rain = 0
KAM1 111123Z 34009KT M10/M14 A3008 RMK A01 T10971141  RH  070%=      5-min Rain = 0
KAM1 111124Z 34008KT M10/M14 A3008 RMK A01 T10961140  RH  070%=      5-min Rain = 0
KAM1 111125Z 34008KT M10/M14 A3008 RMK A01 T10961140  RH  070%=      5-min Rain = 0
KAM1 111126Z 34008KT M10/M14 A3008 RMK A01 T10961141  RH  070%=      5-min Rain = 0
KAM1 111127Z 34008KT M10/M14 A3008 RMK A01 T10961140  RH  070%=      5-min Rain = 0
KAM1 111128Z 35009KT M10/M14 A3007 RMK A01 T10961140  RH  070%=      5-min Rain = 0
KAM1 111129Z 35007KT M10/M14 A3007 RMK A01 T10961141  RH  070%=      5-min Rain = 0
KAM1 111130Z 35007KT M10/M14 A3007 RMK A01 T10961141  RH  070%=      5-min Rain = 0
KAM1 111131Z 34007KT M10/M14 A3008 RMK A01 T10961140  RH  070%=      5-min Rain = 0
KAM1 111132Z 35006KT M10/M14 A3007 RMK A01 T10961140  RH  070%=      5-min Rain = 0
KAM1 111133Z 36004KT M10/M14 A3007 RMK A01 T10961140  RH  070%=      5-min Rain = 0
KAM1 111134Z 35008KT M10/M14 A3007 RMK A01 T10961140  RH  070%=      5-min Rain = 0
KAM1 111135Z 35009KT M10/M14 A3007 RMK A01 T10961140  RH  070%=      5-min Rain = 0
KAM1 111136Z 35007KT M10/M14 A3007 RMK A01 T10961140  RH  070%=      5-min Rain = 0
KAM1 111137Z 36008KT M10/M14 A3007 RMK A01 T10951140  RH  070%=      5-min Rain = 0
KAM1 111138Z 36010KT M10/M14 A3007 RMK A01 T10951140  RH  070%=      5-min Rain = 0
KAM1 111139Z 35010KT M10/M14 A3007 RMK A01 T10951140  RH  070%=      5-min Rain = 0
KAM1 111140Z 34010KT M10/M14 A3007 RMK A01 T10951140  RH  070%=      5-min Rain = 0
KAM1 111141Z 35009KT M10/M14 A3008 RMK A01 T10951140  RH  070%=      5-min Rain = 0
KAM1 111142Z 35008KT M10/M14 A3008 RMK A01 T10951140  RH  070%=      5-min Rain = 0
KAM1 111143Z 34009KT M10/M14 A3008 RMK A01 T10951140  RH  070%=      5-min Rain = 0
KAM1 111144Z 34008KT M10/M14 A3008 RMK A01 T10951140  RH  070%=      5-min Rain = 0
KAM1 111145Z 35008KT M10/M14 A3008 RMK A01 T10951140  RH  070%=      5-min Rain = 0
KAM1 111146Z 35008KT M10/M14 A3008 RMK A01 T10951140  RH  070%=      5-min Rain = 0
KAM1 111147Z 34007KT M10/M14 A3008 RMK A01 T10951140  RH  070%=      5-min Rain = 0
KAM1 111148Z 34007KT M10/M14 A3008 RMK A01 T10951140  RH  070%=      5-min Rain = 0
KAM1 111149Z 34006KT M10/M14 A3008 RMK A01 T10951140  RH  069%=      5-min Rain = 0
KAM1 111150Z 35007KT M10/M14 A3008 RMK A01 T10951140  RH  069%=      5-min Rain = 0
KAM1 111151Z 35006KT M10/M14 A3008 RMK A01 T10951140  RH  070%=      5-min Rain = 0
KAM1 111152Z 35007KT M10/M14 A3008 RMK A01 T10951140  RH  070%=      5-min Rain = 0
KAM1 111153Z 35008KT M10/M14 A3008 RMK A01 T10951140  RH  070%=      5-min Rain = 0
KAM1 111154Z 35007KT M10/M14 A3008 RMK A01 T10951140  RH  070%=      5-min Rain = 0
KAM1 111155Z 34005KT M10/M14 A3009 RMK A01 T10951140  RH  070%=      5-min Rain = 0
KAM1 111156Z 34006KT M10/M14 A3009 RMK A01 T10951140  RH  070%=      5-min Rain = 0
KAM1 111157Z 34006KT M10/M14 A3009 RMK A01 T10951140  RH  070%=      5-min Rain = 0
KAM1 111158Z 34006KT M10/M14 A3009 RMK A01 T10951140  RH  070%=      5-min Rain = 0
KAM1 111159Z 34006KT M10/M14 A3009 RMK A01 T10951140  RH  069%=      5-min Rain = 0
KAM1 111200Z 34008KT M10/M14 A3009 RMK A01 T10951140  RH  069%=      5-min Rain = 0
KAM1 111201Z 34007KT M10/M14 A3009 RMK A01 T10951140  RH  069%=      5-min Rain = 0
KAM1 111202Z 34006KT M10/M14 A3009 RMK A01 T10951140  RH  069%=      5-min Rain = 0
KAM1 111203Z 34006KT M10/M14 A3009 RMK A01 T10951140  RH  070%=      5-min Rain = 0
KAM1 111204Z 35006KT M10/M14 A3009 RMK A01 T10951140  RH  069%=      5-min Rain = 0
KAM1 111205Z 34007KT M10/M14 A3009 RMK A01 T10951140  RH  070%=      5-min Rain = 0
KAM1 111206Z 34006KT M10/M14 A3009 RMK A01 T10951140  RH  070%=      5-min Rain = 0
KAM1 111207Z 34007KT M09/M14 A3009 RMK A01 T10941140  RH  070%=      5-min Rain = 0
KAM1 111208Z 33006KT M09/M14 A3009 RMK A01 T10941140  RH  069%=      5-min Rain = 0
KAM1 111209Z 33006KT M09/M14 A3009 RMK A01 T10941140  RH  069%=      5-min Rain = 0
KAM1 111210Z 33006KT M09/M14 A3009 RMK A01 T10941139  RH  069%=      5-min Rain = 0
KAM1 111211Z 34006KT M09/M14 A3009 RMK A01 T10941140  RH  069%=      5-min Rain = 0
KAM1 111212Z 34005KT M09/M14 A3009 RMK A01 T10941140  RH  069%=      5-min Rain = 0
KAM1 111213Z 33006KT M09/M14 A3009 RMK A01 T10941139  RH  069%=      5-min Rain = 0
KAM1 111214Z 33006KT M09/M14 A3009 RMK A01 T10931139  RH  069%=      5-min Rain = 0
KAM1 111215Z 33007KT M09/M14 A301 RMK A01 T10931139  RH  069%=      5-min Rain = 0
KAM1 111216Z 33006KT M09/M14 A301 RMK A01 T10931139  RH  069%=      5-min Rain = 0
KAM1 111217Z 32007KT M09/M14 A301 RMK A01 T10931139  RH  069%=      5-min Rain = 0
KAM1 111218Z 32006KT M09/M14 A301 RMK A01 T10931139  RH  069%=      5-min Rain = 0
KAM1 111219Z 32008KT M09/M14 A301 RMK A01 T10931139  RH  069%=      5-min Rain = 0
KAM1 111220Z 32007KT M09/M14 A301 RMK A01 T10931139  RH  069%=      5-min Rain = 0
KAM1 111221Z 32007KT M09/M14 A301 RMK A01 T10931139  RH  069%=      5-min Rain = 0
KAM1 111222Z 31007KT M09/M14 A301 RMK A01 T10931139  RH  069%=      5-min Rain = 0
KAM1 111223Z 31007KT M09/M14 A301 RMK A01 T10931139  RH  069%=      5-min Rain = 0
KAM1 111224Z 32007KT M09/M14 A3011 RMK A01 T10931139  RH  069%=      5-min Rain = 0
KAM1 111225Z 32008KT M09/M14 A3011 RMK A01 T10931139  RH  069%=      5-min Rain = 0
KAM1 111226Z 32008KT M09/M14 A3011 RMK A01 T10931139  RH  069%=      5-min Rain = 0
KAM1 111227Z 32008KT M09/M14 A3011 RMK A01 T10931139  RH  069%=      5-min Rain = 0
KAM1 111228Z 33008KT M09/M14 A3011 RMK A01 T10931139  RH  069%=      5-min Rain = 0
KAM1 111229Z 32008KT M09/M14 A3011 RMK A01 T10931139  RH  069%=      5-min Rain = 0
KAM1 111230Z 32008KT M09/M14 A3011 RMK A01 T10931139  RH  069%=      5-min Rain = 0
KAM1 111231Z 32008KT M09/M14 A3011 RMK A01 T10921138  RH  069%=      5-min Rain = 0
KAM1 111232Z 32007KT M09/M14 A3011 RMK A01 T10921138  RH  069%=      5-min Rain = 0
KAM1 111233Z 32007KT M09/M14 A3011 RMK A01 T10921138  RH  069%=      5-min Rain = 0
KAM1 111234Z 32006KT M09/M14 A3011 RMK A01 T10921138  RH  069%=      5-min Rain = 0
KAM1 111235Z 32006KT M09/M14 A3011 RMK A01 T10921138  RH  069%=      5-min Rain = 0
KAM1 111236Z 31004KT M09/M14 A3011 RMK A01 T10921138  RH  069%=      5-min Rain = 0
KAM1 111237Z 31005KT M09/M14 A3011 RMK A01 T10921138  RH  069%=      5-min Rain = 0
KAM1 111238Z 32006KT M09/M14 A3011 RMK A01 T10921138  RH  069%=      5-min Rain = 0
KAM1 111239Z 32007KT M09/M14 A3011 RMK A01 T10921138  RH  069%=      5-min Rain = 0
KAM1 111240Z 32008KT M09/M14 A3011 RMK A01 T10921138  RH  069%=      5-min Rain = 0
KAM1 111241Z 33009KT M09/M14 A3011 RMK A01 T10911138  RH  069%=      5-min Rain = 0
KAM1 111242Z 32007KT M09/M14 A3011 RMK A01 T10911138  RH  069%=      5-min Rain = 0
KAM1 111243Z 32009KT M09/M14 A3011 RMK A01 T10911138  RH  069%=      5-min Rain = 0
KAM1 111244Z 32009KT M09/M14 A3011 RMK A01 T10911137  RH  069%=      5-min Rain = 0
KAM1 111245Z 32009KT M09/M14 A3011 RMK A01 T10911138  RH  069%=      5-min Rain = 0
KAM1 111246Z 32010KT M09/M14 A3011 RMK A01 T10911138  RH  069%=      5-min Rain = 0
KAM1 111247Z 33008KT M09/M14 A3011 RMK A01 T10911138  RH  069%=      5-min Rain = 0
KAM1 111248Z 32008KT M09/M14 A3012 RMK A01 T10901137  RH  069%=      5-min Rain = 0
KAM1 111249Z 32008KT M09/M14 A3012 RMK A01 T10901138  RH  069%=      5-min Rain = 0
KAM1 111250Z 32008KT M09/M14 A3012 RMK A01 T10901137  RH  069%=      5-min Rain = 0
KAM1 111251Z 32009KT M09/M14 A3012 RMK A01 T10901137  RH  069%=      5-min Rain = 0
KAM1 111252Z 32008KT M09/M14 A3012 RMK A01 T10901137  RH  068%=      5-min Rain = 0
KAM1 111253Z 32007KT M09/M14 A3012 RMK A01 T10901137  RH  068%=      5-min Rain = 0
KAM1 111254Z 31007KT M09/M14 A3012 RMK A01 T10891137  RH  068%=      5-min Rain = 0
KAM1 111255Z 32009KT M09/M14 A3012 RMK A01 T10891137  RH  068%=      5-min Rain = 0
KAM1 111256Z 31008KT M09/M14 A3012 RMK A01 T10891137  RH  068%=      5-min Rain = 0
KAM1 111257Z 32007KT M09/M14 A3013 RMK A01 T10891137  RH  068%=      5-min Rain = 0
KAM1 111258Z 31009KT M09/M14 A3013 RMK A01 T10891137  RH  068%=      5-min Rain = 0
KAM1 111259Z 31009KT M09/M14 A3013 RMK A01 T10891137  RH  068%=      5-min Rain = 0
KAM1 111300Z 32009KT M09/M14 A3013 RMK A01 T10891137  RH  068%=      5-min Rain = 0
KAM1 111301Z 32007KT M09/M14 A3013 RMK A01 T10891137  RH  068%=      5-min Rain = 0
KAM1 111302Z 31007KT M09/M14 A3013 RMK A01 T10881136  RH  068%=      5-min Rain = 0
KAM1 111303Z 31009KT M09/M14 A3013 RMK A01 T10891137  RH  068%=      5-min Rain = 0
KAM1 111304Z 31009KT M09/M14 A3013 RMK A01 T10891137  RH  068%=      5-min Rain = 0
KAM1 111305Z 32008KT M09/M14 A3013 RMK A01 T10881136  RH  068%=      5-min Rain = 0
KAM1 111306Z 31007KT M09/M14 A3013 RMK A01 T10881136  RH  068%=      5-min Rain = 0
KAM1 111307Z 32009KT M09/M14 A3013 RMK A01 T10881137  RH  068%=      5-min Rain = 0
KAM1 111308Z 32008KT M09/M14 A3013 RMK A01 T10881137  RH  068%=      5-min Rain = 0
KAM1 111309Z 32008KT M09/M14 A3013 RMK A01 T10871136  RH  068%=      5-min Rain = 0
KAM1 111310Z 32008KT M09/M14 A3013 RMK A01 T10881136  RH  068%=      5-min Rain = 0
KAM1 111311Z 32007KT M09/M14 A3013 RMK A01 T10871136  RH  068%=      5-min Rain = 0
KAM1 111312Z 32008KT M09/M14 A3013 RMK A01 T10871136  RH  068%=      5-min Rain = 0
KAM1 111313Z 32007KT M09/M14 A3013 RMK A01 T10871136  RH  068%=      5-min Rain = 0
KAM1 111314Z 32007KT M09/M14 A3013 RMK A01 T10871136  RH  068%=      5-min Rain = 0
KAM1 111315Z 31008KT M09/M14 A3013 RMK A01 T10871136  RH  068%=      5-min Rain = 0
KAM1 111316Z 32008KT M09/M14 A3013 RMK A01 T10871136  RH  068%=      5-min Rain = 0
KAM1 111317Z 31008KT M09/M14 A3013 RMK A01 T10871136  RH  067%=      5-min Rain = 0
KAM1 111318Z 32007KT M09/M14 A3013 RMK A01 T10871136  RH  067%=      5-min Rain = 0
KAM1 111319Z 32005KT M09/M14 A3013 RMK A01 T10861136  RH  067%=      5-min Rain = 0
KAM1 111320Z 32006KT M09/M14 A3013 RMK A01 T10861135  RH  067%=      5-min Rain = 0
KAM1 111321Z 32007KT M09/M14 A3013 RMK A01 T10861136  RH  067%=      5-min Rain = 0
KAM1 111322Z 32007KT M09/M14 A3013 RMK A01 T10861136  RH  067%=      5-min Rain = 0
KAM1 111323Z 31007KT M09/M14 A3013 RMK A01 T10861135  RH  067%=      5-min Rain = 0
KAM1 111324Z 31009KT M09/M14 A3013 RMK A01 T10861135  RH  067%=      5-min Rain = 0
KAM1 111325Z 31009KT M09/M14 A3013 RMK A01 T10851135  RH  067%=      5-min Rain = 0
KAM1 111326Z 32007KT M09/M14 A3013 RMK A01 T10851135  RH  067%=      5-min Rain = 0
KAM1 111327Z 32009KT M09/M14 A3013 RMK A01 T10851135  RH  067%=      5-min Rain = 0
KAM1 111328Z 32008KT M09/M14 A3013 RMK A01 T10851135  RH  067%=      5-min Rain = 0
KAM1 111329Z 32009KT M09/M14 A3013 RMK A01 T10851135  RH  067%=      5-min Rain = 0
KAM1 111330Z 31006KT M09/M14 A3013 RMK A01 T10851135  RH  067%=      5-min Rain = 0
KAM1 111331Z 32008KT M08/M13 A3013 RMK A01 T10841134  RH  067%=      5-min Rain = 0
KAM1 111332Z 32009KT M08/M13 A3013 RMK A01 T10841134  RH  067%=      5-min Rain = 0
KAM1 111333Z 31007KT M08/M13 A3013 RMK A01 T10841134  RH  067%=      5-min Rain = 0
KAM1 111334Z 32009KT M08/M13 A3013 RMK A01 T10831133  RH  067%=      5-min Rain = 0
KAM1 111335Z 32009KT M08/M13 A3013 RMK A01 T10831133  RH  067%=      5-min Rain = 0
KAM1 111336Z 32010KT M08/M13 A3013 RMK A01 T10831133  RH  067%=      5-min Rain = 0
KAM1 111337Z 32009KT M08/M13 A3013 RMK A01 T10831133  RH  067%=      5-min Rain = 0
KAM1 111338Z 32009KT M08/M13 A3014 RMK A01 T10821132  RH  067%=      5-min Rain = 0
KAM1 111339Z 33008KT M08/M13 A3014 RMK A01 T10821132  RH  067%=      5-min Rain = 0
KAM1 111340Z 33008KT M08/M13 A3014 RMK A01 T10811131  RH  067%=      5-min Rain = 0
KAM1 111341Z 32007KT M08/M13 A3014 RMK A01 T10811131  RH  067%=      5-min Rain = 0
KAM1 111342Z 33008KT M08/M13 A3014 RMK A01 T10811131  RH  067%=      5-min Rain = 0
KAM1 111343Z 33009KT M08/M13 A3014 RMK A01 T10811131  RH  067%=      5-min Rain = 0
KAM1 111344Z 33009KT M08/M13 A3014 RMK A01 T10811131  RH  067%=      5-min Rain = 0
KAM1 111345Z 32008KT M08/M13 A3014 RMK A01 T10811131  RH  067%=      5-min Rain = 0
KAM1 111346Z 32008KT M08/M13 A3014 RMK A01 T10811132  RH  067%=      5-min Rain = 0
KAM1 111347Z 32007KT M08/M13 A3014 RMK A01 T10811132  RH  067%=      5-min Rain = 0
KAM1 111348Z 32009KT M08/M13 A3014 RMK A01 T10801131  RH  067%=      5-min Rain = 0
KAM1 111349Z 32009KT M08/M13 A3014 RMK A01 T10801131  RH  067%=      5-min Rain = 0
KAM1 111350Z 33010KT M08/M13 A3014 RMK A01 T10801132  RH  067%=      5-min Rain = 0
KAM1 111351Z 33010KT M08/M13 A3014 RMK A01 T10801131  RH  066%=      5-min Rain = 0
KAM1 111352Z 33009KT M08/M13 A3014 RMK A01 T10801131  RH  066%=      5-min Rain = 0
KAM1 111353Z 33009KT M08/M13 A3014 RMK A01 T10801131  RH  066%=      5-min Rain = 0
KAM1 111354Z 32008KT M08/M13 A3014 RMK A01 T10801131  RH  066%=      5-min Rain = 0
KAM1 111355Z 33010KT M08/M13 A3014 RMK A01 T10791131  RH  067%=      5-min Rain = 0
KAM1 111356Z 33010KT M08/M13 A3014 RMK A01 T10791131  RH  067%=      5-min Rain = 0
KAM1 111357Z 33009KT M08/M13 A3014 RMK A01 T10791130  RH  066%=      5-min Rain = 0
KAM1 111358Z 32010KT M08/M13 A3014 RMK A01 T10791131  RH  066%=      5-min Rain = 0
KAM1 111359Z 33009KT M08/M13 A3014 RMK A01 T10791130  RH  066%=      5-min Rain = 0
KAM1 111400Z 32009KT M08/M13 A3014 RMK A01 T10781130  RH  066%=      5-min Rain = 0
KAM1 111401Z 33010KT M08/M13 A3014 RMK A01 T10781130  RH  066%=      5-min Rain = 0
KAM1 111402Z 33010KT M08/M13 A3014 RMK A01 T10781130  RH  066%=      5-min Rain = 0
KAM1 111403Z 32011KT M08/M13 A3014 RMK A01 T10781130  RH  066%=      5-min Rain = 0
KAM1 111404Z 32010KT M08/M13 A3014 RMK A01 T10781130  RH  066%=      5-min Rain = 0
KAM1 111405Z 33009KT M08/M13 A3014 RMK A01 T10771130  RH  066%=      5-min Rain = 0
KAM1 111406Z 33008KT M08/M13 A3014 RMK A01 T10781130  RH  066%=      5-min Rain = 0
KAM1 111407Z 32008KT M08/M13 A3014 RMK A01 T10771129  RH  066%=      5-min Rain = 0
KAM1 111408Z 32009KT M08/M13 A3014 RMK A01 T10771129  RH  066%=      5-min Rain = 0
KAM1 111409Z 33011KT M08/M13 A3014 RMK A01 T10771129  RH  066%=      5-min Rain = 0
KAM1 111410Z 33010KT M08/M13 A3014 RMK A01 T10771130  RH  066%=      5-min Rain = 0
KAM1 111411Z 32008KT M08/M13 A3014 RMK A01 T10761130  RH  066%=      5-min Rain = 0
KAM1 111412Z 33008KT M08/M13 A3014 RMK A01 T10761130  RH  066%=      5-min Rain = 0
KAM1 111413Z 33009KT M08/M13 A3014 RMK A01 T10761130  RH  066%=      5-min Rain = 0
KAM1 111414Z 33007KT M08/M13 A3014 RMK A01 T10761129  RH  065%=      5-min Rain = 0
KAM1 111415Z 32007KT M08/M13 A3014 RMK A01 T10751129  RH  065%=      5-min Rain = 0
KAM1 111416Z 32009KT M08/M13 A3014 RMK A01 T10751129  RH  065%=      5-min Rain = 0
KAM1 111417Z 32009KT M08/M13 A3014 RMK A01 T10751130  RH  065%=      5-min Rain = 0
KAM1 111418Z 32009KT M08/M13 A3015 RMK A01 T10751130  RH  065%=      5-min Rain = 0
KAM1 111419Z 33009KT M08/M13 A3015 RMK A01 T10751130  RH  065%=      5-min Rain = 0
KAM1 111420Z 32010KT M08/M13 A3015 RMK A01 T10751130  RH  065%=      5-min Rain = 0
KAM1 111421Z 32008KT M08/M13 A3015 RMK A01 T10751130  RH  065%=      5-min Rain = 0
KAM1 111422Z 33009KT M07/M13 A3015 RMK A01 T10741129  RH  065%=      5-min Rain = 0
KAM1 111423Z 33008KT M07/M13 A3015 RMK A01 T10741129  RH  065%=      5-min Rain = 0
KAM1 111424Z 33007KT M07/M13 A3015 RMK A01 T10731129  RH  065%=      5-min Rain = 0
KAM1 111425Z 33009KT M07/M13 A3015 RMK A01 T10731129  RH  064%=      5-min Rain = 0
KAM1 111426Z 33010KT M07/M13 A3015 RMK A01 T10721128  RH  064%=      5-min Rain = 0
KAM1 111427Z 33009KT M07/M13 A3015 RMK A01 T10721129  RH  064%=      5-min Rain = 0
KAM1 111428Z 32008KT M07/M13 A3015 RMK A01 T10721128  RH  064%=      5-min Rain = 0
KAM1 111429Z 32008G13KT M07/M13 A3015 RMK A01 T10721128  RH  064%=      5-min Rain = 0
KAM1 111430Z 32011KT M07/M13 A3015 RMK A01 T10711128  RH  064%=      5-min Rain = 0
KAM1 111431Z 32010KT M07/M13 A3015 RMK A01 T10721128  RH  064%=      5-min Rain = 0
KAM1 111432Z 32011KT M07/M13 A3015 RMK A01 T10721128  RH  064%=      5-min Rain = 0
KAM1 111433Z 33012KT M07/M13 A3015 RMK A01 T10711128  RH  064%=      5-min Rain = 0
KAM1 111434Z 33011KT M07/M13 A3015 RMK A01 T10711127  RH  064%=      5-min Rain = 0
KAM1 111435Z 33011KT M07/M13 A3015 RMK A01 T10711128  RH  064%=      5-min Rain = 0
KAM1 111436Z 33010KT M07/M13 A3015 RMK A01 T10711127  RH  064%=      5-min Rain = 0
KAM1 111437Z 33008KT M07/M13 A3015 RMK A01 T10701127  RH  064%=      5-min Rain = 0
KAM1 111438Z 33007KT M07/M13 A3015 RMK A01 T10701126  RH  064%=      5-min Rain = 0
KAM1 111439Z 33007KT M07/M13 A3015 RMK A01 T10691125  RH  064%=      5-min Rain = 0
KAM1 111440Z 33009KT M07/M12 A3015 RMK A01 T10681124  RH  064%=      5-min Rain = 0
KAM1 111441Z 33008KT M07/M12 A3015 RMK A01 T10681124  RH  064%=      5-min Rain = 0
KAM1 111442Z 33007KT M07/M13 A3015 RMK A01 T10681125  RH  064%=      5-min Rain = 0
KAM1 111443Z 33011KT M07/M13 A3015 RMK A01 T10681125  RH  064%=      5-min Rain = 0
KAM1 111444Z 33008KT M07/M13 A3015 RMK A01 T10681125  RH  064%=      5-min Rain = 0
KAM1 111445Z 33007KT M07/M12 A3015 RMK A01 T10671124  RH  064%=      5-min Rain = 0
KAM1 111446Z 33009KT M07/M12 A3015 RMK A01 T10671124  RH  064%=      5-min Rain = 0
KAM1 111447Z 33009KT M07/M12 A3015 RMK A01 T10671124  RH  064%=      5-min Rain = 0
KAM1 111448Z 33011KT M07/M12 A3015 RMK A01 T10661124  RH  064%=      5-min Rain = 0
KAM1 111449Z 33011KT M07/M12 A3015 RMK A01 T10661123  RH  064%=      5-min Rain = 0
KAM1 111450Z 34009KT M07/M12 A3015 RMK A01 T10661124  RH  064%=      5-min Rain = 0
KAM1 111451Z 33009KT M07/M12 A3015 RMK A01 T10661124  RH  064%=      5-min Rain = 0
KAM1 111452Z 33010KT M07/M12 A3015 RMK A01 T10661124  RH  064%=      5-min Rain = 0
KAM1 111453Z 33010KT M07/M12 A3016 RMK A01 T10661124  RH  064%=      5-min Rain = 0
KAM1 111454Z 33009KT M07/M12 A3016 RMK A01 T10661124  RH  063%=      5-min Rain = 0
KAM1 111455Z 32007KT M07/M12 A3015 RMK A01 T10661123  RH  064%=      5-min Rain = 0
KAM1 111456Z 33007KT M07/M12 A3015 RMK A01 T10651122  RH  064%=      5-min Rain = 0
KAM1 111457Z 34008KT M06/M12 A3015 RMK A01 T10641121  RH  064%=      5-min Rain = 0
KAM1 111458Z 34010KT M06/M12 A3015 RMK A01 T10641122  RH  063%=      5-min Rain = 0
KAM1 111459Z 33010KT M06/M12 A3015 RMK A01 T10641122  RH  063%=      5-min Rain = 0
KAM1 111500Z 32011KT M06/M12 A3016 RMK A01 T10641122  RH  063%=      5-min Rain = 0
KAM1 111501Z 33010KT M06/M12 A3016 RMK A01 T10641122  RH  063%=      5-min Rain = 0
KAM1 111502Z 33007KT M06/M12 A3016 RMK A01 T10641122  RH  063%=      5-min Rain = 0
KAM1 111503Z 33008G13KT M06/M12 A3016 RMK A01 T10631122  RH  063%=      5-min Rain = 0
KAM1 111504Z 33011KT M06/M12 A3016 RMK A01 T10621121  RH  063%=      5-min Rain = 0
KAM1 111505Z 33011KT M06/M12 A3016 RMK A01 T10621122  RH  063%=      5-min Rain = 0
KAM1 111506Z 33011KT M06/M12 A3016 RMK A01 T10621122  RH  063%=      5-min Rain = 0
KAM1 111507Z 34010KT M06/M12 A3016 RMK A01 T10621122  RH  063%=      5-min Rain = 0
KAM1 111508Z 33008KT M06/M12 A3016 RMK A01 T10621122  RH  063%=      5-min Rain = 0
KAM1 111509Z 33009KT M06/M12 A3016 RMK A01 T10631122  RH  063%=      5-min Rain = 0
KAM1 111510Z 33008KT M06/M12 A3016 RMK A01 T10621121  RH  063%=      5-min Rain = 0
KAM1 111511Z 33007KT M06/M12 A3016 RMK A01 T10611120  RH  063%=      5-min Rain = 0
KAM1 111512Z 33008KT M06/M12 A3016 RMK A01 T10611120  RH  063%=      5-min Rain = 0
KAM1 111513Z 33008KT M06/M12 A3016 RMK A01 T10601120  RH  063%=      5-min Rain = 0
KAM1 111514Z 32008KT M06/M12 A3016 RMK A01 T10601120  RH  063%=      5-min Rain = 0
KAM1 111515Z 33009KT M06/M12 A3016 RMK A01 T10591120  RH  062%=      5-min Rain = 0
KAM1 111516Z 32009KT M06/M12 A3016 RMK A01 T10601120  RH  062%=      5-min Rain = 0
KAM1 111517Z 32009KT M06/M12 A3016 RMK A01 T10591120  RH  062%=      5-min Rain = 0
KAM1 111518Z 32008KT M06/M12 A3016 RMK A01 T10591120  RH  062%=      5-min Rain = 0
KAM1 111519Z 32011KT M06/M12 A3016 RMK A01 T10581119  RH  062%=      5-min Rain = 0
KAM1 111520Z 33011KT M06/M12 A3017 RMK A01 T10581119  RH  062%=      5-min Rain = 0
KAM1 111521Z 32011KT M06/M12 A3017 RMK A01 T10581119  RH  062%=      5-min Rain = 0
KAM1 111522Z 32011KT M06/M12 A3017 RMK A01 T10571119  RH  062%=      5-min Rain = 0
KAM1 111523Z 33010KT M06/M12 A3017 RMK A01 T10571120  RH  062%=      5-min Rain = 0
KAM1 111524Z 32010KT M06/M12 A3017 RMK A01 T10571119  RH  062%=      5-min Rain = 0
KAM1 111525Z 33012KT M06/M12 A3017 RMK A01 T10571119  RH  062%=      5-min Rain = 0
KAM1 111526Z 32012KT M06/M12 A3017 RMK A01 T10561119  RH  061%=      5-min Rain = 0
KAM1 111527Z 33010KT M06/M12 A3017 RMK A01 T10571119  RH  061%=      5-min Rain = 0
KAM1 111528Z 32010KT M06/M12 A3017 RMK A01 T10561119  RH  061%=      5-min Rain = 0
KAM1 111529Z 33011KT M06/M12 A3017 RMK A01 T10551118  RH  061%=      5-min Rain = 0
KAM1 111530Z 33009KT M06/M12 A3017 RMK A01 T10551118  RH  061%=      5-min Rain = 0
KAM1 111531Z 32010KT M05/M12 A3017 RMK A01 T10541117  RH  061%=      5-min Rain = 0
KAM1 111532Z 32010KT M05/M12 A3017 RMK A01 T10541118  RH  061%=      5-min Rain = 0
KAM1 111533Z 32011KT M05/M12 A3017 RMK A01 T10541118  RH  061%=      5-min Rain = 0
KAM1 111534Z 31012KT M05/M12 A3018 RMK A01 T10541118  RH  061%=      5-min Rain = 0
KAM1 111535Z 32011KT M05/M12 A3018 RMK A01 T10541118  RH  060%=      5-min Rain = 0
KAM1 111536Z 32012KT M05/M12 A3018 RMK A01 T10541119  RH  061%=      5-min Rain = 0
KAM1 111537Z 32012KT M05/M12 A3018 RMK A01 T10541118  RH  061%=      5-min Rain = 0
KAM1 111538Z 32010KT M06/M12 A3018 RMK A01 T10551119  RH  061%=      5-min Rain = 0
KAM1 111539Z 32010KT M06/M12 A3018 RMK A01 T10551119  RH  061%=      5-min Rain = 0
KAM1 111540Z 32010KT M06/M12 A3018 RMK A01 T10551118  RH  061%=      5-min Rain = 0
KAM1 111541Z 32012KT M05/M12 A3018 RMK A01 T10541117  RH  061%=      5-min Rain = 0
KAM1 111542Z 33010KT M05/M12 A3018 RMK A01 T10541117  RH  061%=      5-min Rain = 0
KAM1 111543Z 32009KT M05/M12 A3018 RMK A01 T10541117  RH  061%=      5-min Rain = 0
KAM1 111544Z 32010KT M05/M12 A3018 RMK A01 T10531116  RH  061%=      5-min Rain = 0
KAM1 111545Z 32012KT M05/M12 A3018 RMK A01 T10521115  RH  061%=      5-min Rain = 0
KAM1 111546Z 33012KT M05/M12 A3018 RMK A01 T10511115  RH  061%=      5-min Rain = 0
KAM1 111547Z 33012KT M05/M12 A3018 RMK A01 T10511115  RH  061%=      5-min Rain = 0
KAM1 111548Z 33013KT M05/M12 A3018 RMK A01 T10511115  RH  061%=      5-min Rain = 0
KAM1 111549Z 33012KT M05/M12 A3018 RMK A01 T10511116  RH  060%=      5-min Rain = 0
KAM1 111550Z 33008KT M05/M12 A3018 RMK A01 T10511115  RH  061%=      5-min Rain = 0
KAM1 111551Z 32011KT M05/M11 A3018 RMK A01 T10491113  RH  061%=      5-min Rain = 0
KAM1 111552Z 33011KT M05/M11 A3018 RMK A01 T10491113  RH  060%=      5-min Rain = 0
KAM1 111553Z 33010KT M05/M11 A3018 RMK A01 T10491114  RH  060%=      5-min Rain = 0
KAM1 111554Z 33013KT M05/M11 A3018 RMK A01 T10491114  RH  060%=      5-min Rain = 0
KAM1 111555Z 33014KT M05/M11 A3018 RMK A01 T10481113  RH  060%=      5-min Rain = 0
KAM1 111556Z 33012KT M05/M11 A3018 RMK A01 T10471113  RH  060%=      5-min Rain = 0
KAM1 111557Z 33013KT M05/M11 A3018 RMK A01 T10461113  RH  060%=      5-min Rain = 0
KAM1 111558Z 32012KT M05/M11 A3018 RMK A01 T10451112  RH  059%=      5-min Rain = 0
KAM1 111559Z 33012KT M04/M11 A3018 RMK A01 T10441112  RH  059%=      5-min Rain = 0
KAM1 111600Z 33012KT M04/M11 A3018 RMK A01 T10421111  RH  059%=      5-min Rain = 0
KAM1 111601Z 33011KT M04/M11 A3018 RMK A01 T10401110  RH  058%=      5-min Rain = 0
KAM1 111602Z 33012KT M04/M11 A3018 RMK A01 T10391110  RH  058%=      5-min Rain = 0
KAM1 111603Z 33012KT M04/M11 A3018 RMK A01 T10391111  RH  057%=      5-min Rain = 0
KAM1 111604Z 34013KT M04/M11 A3018 RMK A01 T10391111  RH  057%=      5-min Rain = 0
KAM1 111605Z 33013G18KT M04/M11 A3018 RMK A01 T10371109  RH  057%=      5-min Rain = 0
KAM1 111606Z 33014KT M03/M11 A3018 RMK A01 T10341109  RH  056%=      5-min Rain = 0
KAM1 111607Z 33016KT M04/M11 A3018 RMK A01 T10351111  RH  056%=      5-min Rain = 0
KAM1 111608Z 33017KT M04/M11 A3018 RMK A01 T10371113  RH  056%=      5-min Rain = 0
KAM1 111609Z 33014KT M04/M11 A3018 RMK A01 T10381114  RH  056%=      5-min Rain = 0
KAM1 111610Z 34014KT M04/M11 A3018 RMK A01 T10371112  RH  056%=      5-min Rain = 0
KAM1 111611Z 34015KT M04/M11 A3018 RMK A01 T10351112  RH  056%=      5-min Rain = 0
KAM1 111612Z 33015KT M03/M11 A3018 RMK A01 T10341111  RH  055%=      5-min Rain = 0
KAM1 111613Z 34015KT M03/M11 A3018 RMK A01 T10321111  RH  054%=      5-min Rain = 0
KAM1 111614Z 34017KT M03/M11 A3018 RMK A01 T10311112  RH  054%=      5-min Rain = 0
KAM1 111615Z 34015KT M03/M11 A3018 RMK A01 T10311113  RH  053%=      5-min Rain = 0
KAM1 111616Z 33012KT M03/M11 A3018 RMK A01 T10311114  RH  053%=      5-min Rain = 0
KAM1 111617Z 34014KT M03/M11 A3018 RMK A01 T10291113  RH  053%=      5-min Rain = 0
KAM1 111618Z 34015KT M03/M11 A3018 RMK A01 T10291113  RH  052%=      5-min Rain = 0
KAM1 111619Z 34014KT M03/M12 A3018 RMK A01 T10291115  RH  052%=      5-min Rain = 0
KAM1 111620Z 34015G20KT M03/M12 A3018 RMK A01 T10311116  RH  052%=      5-min Rain = 0
KAM1 111621Z 35014KT M03/M12 A3018 RMK A01 T10311117  RH  052%=      5-min Rain = 0
KAM1 111622Z 35015KT M03/M12 A3018 RMK A01 T10331119  RH  051%=      5-min Rain = 0
KAM1 111623Z 33015KT M03/M12 A3018 RMK A01 T10321117  RH  052%=      5-min Rain = 0
KAM1 111624Z 34014KT M03/M12 A3018 RMK A01 T10291115  RH  051%=      5-min Rain = 0
KAM1 111625Z 35017KT M03/M12 A3018 RMK A01 T10271115  RH  051%=      5-min Rain = 0
KAM1 111626Z 35016G21KT M03/M12 A3018 RMK A01 T10261117  RH  050%=      5-min Rain = 0
KAM1 111627Z 35015KT M03/M12 A3018 RMK A01 T10251116  RH  050%=      5-min Rain = 0
KAM1 111628Z 35015G21KT M02/M11 A3018 RMK A01 T10211113  RH  049%=      5-min Rain = 0
KAM1 111629Z 35012KT M02/M11 A3018 RMK A01 T10191113  RH  049%=      5-min Rain = 0
KAM1 111630Z 35017G22KT M02/M11 A3018 RMK A01 T10171113  RH  048%=      5-min Rain = 0
KAM1 111631Z 34017KT M02/M12 A3018 RMK A01 T10221120  RH  047%=      5-min Rain = 0
KAM1 111632Z 35016KT M03/M12 A3018 RMK A01 T10251122  RH  048%=      5-min Rain = 0
KAM1 111633Z 35014KT M03/M12 A3018 RMK A01 T10281123  RH  048%=      5-min Rain = 0
KAM1 111634Z 34014KT M03/M12 A3018 RMK A01 T10261119  RH  049%=      5-min Rain = 0
KAM1 111635Z 34012KT M02/M12 A3019 RMK A01 T10241119  RH  048%=      5-min Rain = 0
KAM1 111636Z 34012KT M02/M12 A3018 RMK A01 T10231117  RH  048%=      5-min Rain = 0
KAM1 111637Z 35014KT M02/M12 A3019 RMK A01 T10201116  RH  048%=      5-min Rain = 0
KAM1 111638Z 34016KT M02/M12 A3019 RMK A01 T10201118  RH  047%=      5-min Rain = 0
KAM1 111639Z 34015KT M02/M12 A3019 RMK A01 T10211121  RH  047%=      5-min Rain = 0
KAM1 111640Z 34016KT M02/M12 A3019 RMK A01 T10231122  RH  047%=      5-min Rain = 0
KAM1 111641Z 33017KT M02/M12 A3019 RMK A01 T10231122  RH  047%=      5-min Rain = 0
KAM1 111642Z 34016KT M02/M12 A3019 RMK A01 T10231121  RH  047%=      5-min Rain = 0
KAM1 111643Z 34014KT M02/M12 A3019 RMK A01 T10221120  RH  047%=      5-min Rain = 0
KAM1 111644Z 34017KT M02/M12 A3019 RMK A01 T10221121  RH  047%=      5-min Rain = 0
KAM1 111645Z 33014KT M02/M12 A3019 RMK A01 T10221121  RH  047%=      5-min Rain = 0
KAM1 111646Z 33013KT M02/M12 A3018 RMK A01 T10231121  RH  047%=      5-min Rain = 0
KAM1 111647Z 35014G19KT M02/M12 A3019 RMK A01 T10231121  RH  047%=      5-min Rain = 0
KAM1 111648Z 35014KT M02/M12 A3018 RMK A01 T10231122  RH  047%=      5-min Rain = 0
KAM1 111649Z 35013KT M02/M12 A3018 RMK A01 T10221122  RH  046%=      5-min Rain = 0
KAM1 111650Z 36016KT M02/M12 A3019 RMK A01 T10201121  RH  046%=      5-min Rain = 0
KAM1 111651Z 35016KT M02/M12 A3019 RMK A01 T10191122  RH  045%=      5-min Rain = 0
KAM1 111652Z 34017KT M02/M12 A3019 RMK A01 T10201123  RH  045%=      5-min Rain = 0
KAM1 111653Z 34016KT M02/M12 A3019 RMK A01 T10201123  RH  045%=      5-min Rain = 0
KAM1 111654Z 34014KT M02/M12 A3019 RMK A01 T10191123  RH  045%=      5-min Rain = 0
KAM1 111655Z 34014KT M02/M12 A3019 RMK A01 T10191123  RH  045%=      5-min Rain = 0
KAM1 111656Z 33016KT M02/M12 A3019 RMK A01 T10181122  RH  045%=      5-min Rain = 0
KAM1 111657Z 34013KT M02/M12 A3019 RMK A01 T10161122  RH  044%=      5-min Rain = 0
KAM1 111658Z 34016KT M01/M12 A3019 RMK A01 T10131120  RH  044%=      5-min Rain = 0
KAM1 111659Z 33014KT M02/M12 A3019 RMK A01 T10151123  RH  043%=      5-min Rain = 0
KAM1 111700Z 34016KT M02/M12 A3019 RMK A01 T10151124  RH  043%=      5-min Rain = 0
KAM1 111701Z 35011KT M02/M13 A3019 RMK A01 T10161125  RH  043%=      5-min Rain = 0
KAM1 111702Z 35011KT M01/M12 A3019 RMK A01 T10131120  RH  044%=      5-min Rain = 0
KAM1 111703Z 36012KT M01/M12 A3019 RMK A01 T10091118  RH  043%=      5-min Rain = 0
KAM1 111704Z 35014KT M01/M12 A3019 RMK A01 T10071118  RH  043%=      5-min Rain = 0
KAM1 111705Z 34016KT M01/M12 A3019 RMK A01 T10061120  RH  042%=      5-min Rain = 0
KAM1 111706Z 35015KT M01/M12 A3019 RMK A01 T10081124  RH  041%=      5-min Rain = 0
KAM1 111707Z 35013KT M01/M12 A3019 RMK A01 T10091124  RH  041%=      5-min Rain = 0
KAM1 111708Z 35014KT M01/M12 A3019 RMK A01 T10061120  RH  042%=      5-min Rain = 0
KAM1 111709Z 35017KT M01/M12 A3019 RMK A01 T10051122  RH  041%=      5-min Rain = 0
KAM1 111710Z 35014KT M01/M12 A3019 RMK A01 T10061124  RH  040%=      5-min Rain = 0
KAM1 111711Z 36015KT M01/M13 A3019 RMK A01 T10071125  RH  040%=      5-min Rain = 0
KAM1 111712Z 34012KT M01/M13 A3019 RMK A01 T10071125  RH  041%=      5-min Rain = 0
KAM1 111713Z 35013G18KT M01/M13 A3019 RMK A01 T10081125  RH  041%=      5-min Rain = 0
KAM1 111714Z 35013KT M01/M12 A3019 RMK A01 T10061122  RH  041%=      5-min Rain = 0
KAM1 111715Z 35014KT M01/M12 A3019 RMK A01 T10051123  RH  040%=      5-min Rain = 0
KAM1 111716Z 00013KT M00/M12 A3019 RMK A01 T10041123  RH  040%=      5-min Rain = 0
KAM1 111717Z 36016KT M00/M12 A3019 RMK A01 T10031123  RH  040%=      5-min Rain = 0
KAM1 111718Z 35015KT M00/M13 A3019 RMK A01 T10041125  RH  040%=      5-min Rain = 0
KAM1 111719Z 36013KT M00/M12 A3019 RMK A01 T10031124  RH  040%=      5-min Rain = 0
KAM1 111720Z 00015KT M00/M12 A3019 RMK A01 T10011123  RH  039%=      5-min Rain = 0
KAM1 111721Z 00014KT M00/M13 A3019 RMK A01 T10021126  RH  039%=      5-min Rain = 0
KAM1 111722Z 35013KT M00/M13 A3019 RMK A01 T10041127  RH  039%=      5-min Rain = 0
KAM1 111723Z 35011KT M00/M12 A3019 RMK A01 T10031124  RH  040%=      5-min Rain = 0
KAM1 111724Z 00012KT M00/M12 A3019 RMK A01 T10011122  RH  040%=      5-min Rain = 0
KAM1 111725Z 00013KT 00/12 A3019 RMK A01 T00-00-122  RH  039%=      5-min Rain = 0
KAM1 111726Z 35015KT 00/12 A3019 RMK A01 T00000-122  RH  039%=      5-min Rain = 0
KAM1 111727Z 36013KT M00/M13 A3019 RMK A01 T10011126  RH  038%=      5-min Rain = 0
KAM1 111728Z 01013KT M00/M13 A3019 RMK A01 T10021126  RH  039%=      5-min Rain = 0
KAM1 111729Z 35014KT 00/12 A3019 RMK A01 T00000-124  RH  039%=      5-min Rain = 0
KAM1 111730Z 35012KT 00/M13 A3019 RMK A01 T00011126  RH  038%=      5-min Rain = 0
KAM1 111731Z 35012KT 00/13 A3019 RMK A01 T00-00-126  RH  038%=      5-min Rain = 0
KAM1 111732Z 35013KT 00/13 A3019 RMK A01 T00-00-125  RH  039%=      5-min Rain = 0
KAM1 111733Z 36013KT 00/M12 A3019 RMK A01 T00011124  RH  038%=      5-min Rain = 0
KAM1 111734Z 35014KT 00/M12 A3019 RMK A01 T00021124  RH  038%=      5-min Rain = 0
KAM1 111735Z 36015KT 00/M13 A3019 RMK A01 T00021126  RH  038%=      5-min Rain = 0
KAM1 111736Z 36012KT 00/M13 A3019 RMK A01 T00011128  RH  037%=      5-min Rain = 0
KAM1 111737Z 00013KT 00/M13 A3019 RMK A01 T00011128  RH  037%=      5-min Rain = 0
KAM1 111738Z 00013KT 00/M13 A3019 RMK A01 T00011128  RH  037%=      5-min Rain = 0
KAM1 111739Z 00010KT 00/13 A3019 RMK A01 T00-00-128  RH  038%=      5-min Rain = 0
KAM1 111740Z 34010KT 00/M13 A3019 RMK A01 T00011126  RH  038%=      5-min Rain = 0
KAM1 111741Z 35010KT 00/M12 A3019 RMK A01 T00041123  RH  038%=      5-min Rain = 0
KAM1 111742Z 34012KT 01/M12 A3019 RMK A01 T00061122  RH  038%=      5-min Rain = 0
KAM1 111743Z 32012KT 01/M12 A3018 RMK A01 T00071124  RH  037%=      5-min Rain = 0
KAM1 111744Z 34013KT 01/M13 A3018 RMK A01 T00071125  RH  037%=      5-min Rain = 0
KAM1 111745Z 34009G14KT 01/M13 A3018 RMK A01 T00051126  RH  037%=      5-min Rain = 0
KAM1 111746Z 33013KT 00/M13 A3018 RMK A01 T00041126  RH  037%=      5-min Rain = 0
KAM1 111747Z 34010KT 01/M13 A3018 RMK A01 T00061125  RH  037%=      5-min Rain = 0
KAM1 111748Z 34011KT 01/M13 A3018 RMK A01 T00061126  RH  037%=      5-min Rain = 0
KAM1 111749Z 36011KT 01/M13 A3018 RMK A01 T00061126  RH  037%=      5-min Rain = 0
KAM1 111750Z 35010KT 01/M13 A3018 RMK A01 T00081126  RH  036%=      5-min Rain = 0
KAM1 111751Z 00012G17KT 01/M13 A3018 RMK A01 T00051127  RH  036%=      5-min Rain = 0
KAM1 111752Z 35013KT 01/M13 A3018 RMK A01 T00061127  RH  036%=      5-min Rain = 0
KAM1 111753Z 01011KT 01/M13 A3018 RMK A01 T00061127  RH  036%=      5-min Rain = 0
KAM1 111754Z 01010KT 01/M13 A3018 RMK A01 T00071126  RH  036%=      5-min Rain = 0
KAM1 111755Z 36012KT 01/M13 A3018 RMK A01 T00071126  RH  036%=      5-min Rain = 0
KAM1 111756Z 01012KT 01/M13 A3018 RMK A01 T00081126  RH  036%=      5-min Rain = 0
KAM1 111757Z 01010KT 01/M13 A3018 RMK A01 T00061128  RH  036%=      5-min Rain = 0
KAM1 111758Z 00009KT 01/M13 A3018 RMK A01 T00061126  RH  037%=      5-min Rain = 0
KAM1 111759Z 35008KT 01/M13 A3018 RMK A01 T00061125  RH  037%=      5-min Rain = 0
KAM1 111800Z 33009KT 01/M12 A3018 RMK A01 T00101121  RH  037%=      5-min Rain = 0
KAM1 111801Z 33010KT 01/M12 A3017 RMK A01 T00121121  RH  036%=      5-min Rain = 0
KAM1 111802Z 34008KT 01/M12 A3018 RMK A01 T00101124  RH  036%=      5-min Rain = 0
KAM1 111803Z 35012KT 01/M12 A3018 RMK A01 T00111123  RH  036%=      5-min Rain = 0
KAM1 111804Z 34009KT 01/M12 A3018 RMK A01 T00121124  RH  036%=      5-min Rain = 0
KAM1 111805Z 35008KT 01/M12 A3018 RMK A01 T00111124  RH  036%=      5-min Rain = 0
KAM1 111806Z 35011KT 01/M13 A3018 RMK A01 T00101125  RH  036%=      5-min Rain = 0
KAM1 111807Z 35012KT 01/M12 A3018 RMK A01 T00121124  RH  036%=      5-min Rain = 0
KAM1 111808Z 36011KT 01/M13 A3018 RMK A01 T00121125  RH  035%=      5-min Rain = 0
KAM1 111809Z 36010KT 02/M12 A3018 RMK A01 T00151123  RH  035%=      5-min Rain = 0
KAM1 111810Z 35010KT 01/M13 A3018 RMK A01 T00131127  RH  035%=      5-min Rain = 0
KAM1 111811Z 36008KT 01/M13 A3017 RMK A01 T00111127  RH  035%=      5-min Rain = 0
KAM1 111812Z 33007G12KT 01/M12 A3017 RMK A01 T00141122  RH  036%=      5-min Rain = 0
KAM1 111813Z 34011KT 02/M12 A3018 RMK A01 T00161122  RH  035%=      5-min Rain = 0
KAM1 111814Z 35010KT 02/M12 A3018 RMK A01 T00161124  RH  035%=      5-min Rain = 0
KAM1 111815Z 35005KT 01/M13 A3018 RMK A01 T00131127  RH  035%=      5-min Rain = 0
KAM1 111816Z 34007KT 01/M13 A3017 RMK A01 T00121125  RH  035%=      5-min Rain = 0
KAM1 111817Z 33008KT 01/M12 A3017 RMK A01 T00141123  RH  035%=      5-min Rain = 0
KAM1 111818Z 32005KT 01/M12 A3017 RMK A01 T00131124  RH  035%=      5-min Rain = 0
KAM1 111819Z 34008KT 01/M12 A3017 RMK A01 T00121123  RH  036%=      5-min Rain = 0
KAM1 111820Z 32006KT 01/M12 A3017 RMK A01 T00141121  RH  036%=      5-min Rain = 0
KAM1 111821Z 33008KT 02/M12 A3017 RMK A01 T00151121  RH  036%=      5-min Rain = 0
KAM1 111822Z 00009KT 02/M12 A3017 RMK A01 T00161121  RH  035%=      5-min Rain = 0
KAM1 111823Z 32011KT 02/M12 A3017 RMK A01 T00181120  RH  035%=      5-min Rain = 0
KAM1 111824Z 32010KT 02/M12 A3017 RMK A01 T00181121  RH  035%=      5-min Rain = 0
KAM1 111825Z 32007KT 02/M12 A3017 RMK A01 T00161123  RH  035%=      5-min Rain = 0
KAM1 111826Z 32005KT 02/M12 A3017 RMK A01 T00161122  RH  035%=      5-min Rain = 0
KAM1 111827Z 31006KT 02/M12 A3017 RMK A01 T00161122  RH  035%=      5-min Rain = 0
KAM1 111828Z 31010KT 02/M12 A3017 RMK A01 T00161122  RH  035%=      5-min Rain = 0
KAM1 111829Z 34009KT 02/M12 A3017 RMK A01 T00171122  RH  035%=      5-min Rain = 0
KAM1 111830Z 36008KT 02/M12 A3017 RMK A01 T00181123  RH  034%=      5-min Rain = 0
KAM1 111831Z 00005KT 02/M12 A3016 RMK A01 T00181123  RH  034%=      5-min Rain = 0
KAM1 111832Z 36002KT 02/M12 A3016 RMK A01 T00181124  RH  034%=      5-min Rain = 0
KAM1 111833Z 34008KT 02/M12 A3016 RMK A01 T00191122  RH  034%=      5-min Rain = 0
KAM1 111834Z 35008KT 02/M12 A3016 RMK A01 T00201122  RH  034%=      5-min Rain = 0
KAM1 111835Z 31008KT 02/M12 A3016 RMK A01 T00211123  RH  033%=      5-min Rain = 0
KAM1 111836Z 35010G17KT 02/M12 A3016 RMK A01 T00241122  RH  033%=      5-min Rain = 0
KAM1 111837Z 33009KT 03/M12 A3016 RMK A01 T00281121  RH  032%=      5-min Rain = 0
KAM1 111838Z 34007KT 03/M12 A3016 RMK A01 T00271124  RH  032%=      5-min Rain = 0
KAM1 111839Z 33010KT 03/M13 A3016 RMK A01 T00271125  RH  032%=      5-min Rain = 0
KAM1 111840Z 33006KT 03/M13 A3016 RMK A01 T00251126  RH  032%=      5-min Rain = 0
KAM1 111841Z 35009KT 02/M13 A3016 RMK A01 T00241127  RH  032%=      5-min Rain = 0
KAM1 111842Z 35010KT 03/M13 A3016 RMK A01 T00251127  RH  032%=      5-min Rain = 0
KAM1 111843Z 35012KT 03/M13 A3016 RMK A01 T00261127  RH  031%=      5-min Rain = 0
KAM1 111844Z 35009KT 03/M13 A3016 RMK A01 T00251128  RH  031%=      5-min Rain = 0
KAM1 111845Z 36007KT 02/M13 A3016 RMK A01 T00241129  RH  031%=      5-min Rain = 0
KAM1 111846Z 36006G11KT 02/M13 A3016 RMK A01 T00241126  RH  032%=      5-min Rain = 0
KAM1 111847Z 34009KT 03/M13 A3016 RMK A01 T00251126  RH  032%=      5-min Rain = 0
KAM1 111848Z 34006KT 03/M13 A3016 RMK A01 T00251125  RH  032%=      5-min Rain = 0
KAM1 111849Z 32005KT 03/M13 A3016 RMK A01 T00251126  RH  032%=      5-min Rain = 0
KAM1 111850Z 30005KT 02/M13 A3016 RMK A01 T00241126  RH  032%=      5-min Rain = 0
KAM1 111851Z 33007KT 02/M13 A3016 RMK A01 T00241125  RH  032%=      5-min Rain = 0
KAM1 111852Z 32006KT 03/M13 A3016 RMK A01 T00251125  RH  032%=      5-min Rain = 0
KAM1 111853Z 33006KT 02/M13 A3016 RMK A01 T00241126  RH  032%=      5-min Rain = 0
KAM1 111854Z 34007KT 03/M13 A3015 RMK A01 T00261125  RH  032%=      5-min Rain = 0
KAM1 111855Z 35008KT 03/M13 A3015 RMK A01 T00261126  RH  032%=      5-min Rain = 0
KAM1 111856Z 34007KT 03/M13 A3015 RMK A01 T00261125  RH  032%=      5-min Rain = 0
KAM1 111857Z 32007KT 03/M13 A3015 RMK A01 T00271125  RH  032%=      5-min Rain = 0
KAM1 111858Z 32006KT 03/M13 A3015 RMK A01 T00271125  RH  032%=      5-min Rain = 0
KAM1 111859Z 31005KT 03/M13 A3015 RMK A01 T00271125  RH  032%=      5-min Rain = 0
KAM1 111900Z 32009KT 03/M12 A3015 RMK A01 T00291123  RH  032%=      5-min Rain = 0
KAM1 111901Z 32009KT 03/M13 A3015 RMK A01 T00301127  RH  031%=      5-min Rain = 0
KAM1 111902Z 35008KT 03/M13 A3015 RMK A01 T00291129  RH  030%=      5-min Rain = 0
KAM1 111903Z 36008KT 03/M13 A3015 RMK A01 T00291127  RH  031%=      5-min Rain = 0
KAM1 111904Z 34005KT 03/M13 A3015 RMK A01 T00321125  RH  031%=      5-min Rain = 0
KAM1 111905Z 31005KT 03/M13 A3015 RMK A01 T00331126  RH  030%=      5-min Rain = 0
KAM1 111906Z 32004G9KT 03/M13 A3014 RMK A01 T00331128  RH  030%=      5-min Rain = 0
KAM1 111907Z 32009KT 03/M13 A3014 RMK A01 T00321130  RH  029%=      5-min Rain = 0
KAM1 111908Z 32008KT 03/M13 A3014 RMK A01 T00341130  RH  029%=      5-min Rain = 0
KAM1 111909Z 32007KT 04/M13 A3014 RMK A01 T00351132  RH  028%=      5-min Rain = 0
KAM1 111910Z 02007KT 04/M13 A3014 RMK A01 T00351132  RH  028%=      5-min Rain = 0
KAM1 111911Z 01007KT 04/M13 A3015 RMK A01 T00361132  RH  028%=      5-min Rain = 0
KAM1 111912Z 35004KT 04/M13 A3014 RMK A01 T00351133  RH  028%=      5-min Rain = 0
KAM1 111913Z 01004KT 04/M13 A3014 RMK A01 T00351133  RH  028%=      5-min Rain = 0
KAM1 111914Z 01006KT 04/M13 A3014 RMK A01 T00361130  RH  028%=      5-min Rain = 0
KAM1 111915Z 36008KT 04/M13 A3014 RMK A01 T00391128  RH  028%=      5-min Rain = 0
KAM1 111916Z 01008KT 04/M13 A3014 RMK A01 T00411129  RH  028%=      5-min Rain = 0
KAM1 111917Z 02009KT 04/M13 A3014 RMK A01 T00411131  RH  027%=      5-min Rain = 0
KAM1 111918Z 00008KT 04/M13 A3014 RMK A01 T00391134  RH  027%=      5-min Rain = 0
KAM1 111919Z 01008KT 04/M13 A3014 RMK A01 T00371134  RH  027%=      5-min Rain = 0
KAM1 111920Z 02006KT 04/M13 A3014 RMK A01 T00381134  RH  027%=      5-min Rain = 0
KAM1 111921Z 03006KT 04/M13 A3013 RMK A01 T00381134  RH  027%=      5-min Rain = 0
KAM1 111922Z 02005KT 04/M13 A3013 RMK A01 T00381133  RH  027%=      5-min Rain = 0
KAM1 111923Z 02002KT 04/M13 A3013 RMK A01 T00381132  RH  028%=      5-min Rain = 0
KAM1 111924Z 02005KT 04/M13 A3013 RMK A01 T00391130  RH  028%=      5-min Rain = 0
KAM1 111925Z 01005KT 04/M13 A3013 RMK A01 T00401131  RH  027%=      5-min Rain = 0
KAM1 111926Z 01007KT 04/M13 A3013 RMK A01 T00421131  RH  027%=      5-min Rain = 0
KAM1 111927Z 02007KT 04/M13 A3013 RMK A01 T00421131  RH  027%=      5-min Rain = 0
KAM1 111928Z 03005KT 04/M13 A3013 RMK A01 T00401133  RH  027%=      5-min Rain = 0
KAM1 111929Z 03004KT 04/M13 A3013 RMK A01 T00391133  RH  027%=      5-min Rain = 0
KAM1 111930Z 02004KT 04/M13 A3013 RMK A01 T00401132  RH  027%=      5-min Rain = 0
KAM1 111931Z 01006KT 04/M13 A3013 RMK A01 T00411134  RH  027%=      5-min Rain = 0
KAM1 111932Z 00007KT 04/M14 A3013 RMK A01 T00431135  RH  026%=      5-min Rain = 0
KAM1 111933Z 36006KT 04/M14 A3013 RMK A01 T00441135  RH  026%=      5-min Rain = 0
KAM1 111934Z 01008KT 04/M14 A3013 RMK A01 T00441135  RH  026%=      5-min Rain = 0
KAM1 111935Z 36008KT 04/M14 A3013 RMK A01 T00431137  RH  026%=      5-min Rain = 0
KAM1 111936Z 00008KT 05/M14 A3013 RMK A01 T00451136  RH  026%=      5-min Rain = 0
KAM1 111937Z 36007KT 05/M14 A3013 RMK A01 T00451137  RH  025%=      5-min Rain = 0
KAM1 111938Z 01006KT 04/M14 A3013 RMK A01 T00411140  RH  025%=      5-min Rain = 0
KAM1 111939Z 02006KT 04/M14 A3013 RMK A01 T00381140  RH  026%=      5-min Rain = 0
KAM1 111940Z 02005KT 04/M14 A3013 RMK A01 T00371139  RH  026%=      5-min Rain = 0
KAM1 111941Z 00004KT 04/M14 A3013 RMK A01 T00371138  RH  027%=      5-min Rain = 0
KAM1 111942Z 34003KT 04/M14 A3013 RMK A01 T00371138  RH  026%=      5-min Rain = 0
KAM1 111943Z 34005KT 04/M14 A3013 RMK A01 T00391136  RH  026%=      5-min Rain = 0
KAM1 111944Z 01003KT 04/M13 A3013 RMK A01 T00431134  RH  026%=      5-min Rain = 0
KAM1 111945Z 35002KT 04/M14 A3013 RMK A01 T00431136  RH  026%=      5-min Rain = 0
KAM1 111946Z 33007KT 04/M14 A3013 RMK A01 T00421137  RH  026%=      5-min Rain = 0
KAM1 111947Z 31006KT 04/M14 A3012 RMK A01 T00441138  RH  025%=      5-min Rain = 0
KAM1 111948Z 33008KT 05/M14 A3012 RMK A01 T00451138  RH  025%=      5-min Rain = 0
KAM1 111949Z 33009KT 05/M14 A3012 RMK A01 T00461138  RH  025%=      5-min Rain = 0
KAM1 111950Z 33007KT 05/M14 A3012 RMK A01 T00471137  RH  025%=      5-min Rain = 0
KAM1 111951Z 02006KT 05/M14 A3012 RMK A01 T00471137  RH  025%=      5-min Rain = 0
KAM1 111952Z 03007KT 05/M14 A3012 RMK A01 T00481138  RH  024%=      5-min Rain = 0
KAM1 111953Z 02007KT 05/M14 A3012 RMK A01 T00471139  RH  024%=      5-min Rain = 0
KAM1 111954Z 03006KT 05/M14 A3012 RMK A01 T00481139  RH  024%=      5-min Rain = 0
KAM1 111955Z 04003KT 05/M14 A3012 RMK A01 T00461140  RH  024%=      5-min Rain = 0
KAM1 111956Z 06007KT 05/M14 A3012 RMK A01 T00471138  RH  025%=      5-min Rain = 0
KAM1 111957Z 04008KT 05/M14 A3012 RMK A01 T00491136  RH  025%=      5-min Rain = 0
KAM1 111958Z 04005KT 05/M14 A3012 RMK A01 T00491137  RH  024%=      5-min Rain = 0
KAM1 111959Z 03002KT 05/M14 A3012 RMK A01 T00451142  RH  024%=      5-min Rain = 0
KAM1 112000Z 00001KT 04/M14 A3012 RMK A01 T00431139  RH  025%=      5-min Rain = 0
KAM1 112001Z 11002KT 04/M14 A3012 RMK A01 T00431140  RH  025%=      5-min Rain = 0
KAM1 112002Z 15002KT 04/M14 A3011 RMK A01 T00441140  RH  025%=      5-min Rain = 0
KAM1 112003Z 07002KT 05/M14 A3011 RMK A01 T00451138  RH  025%=      5-min Rain = 0
KAM1 112004Z 05004KT 05/M14 A3011 RMK A01 T00461138  RH  025%=      5-min Rain = 0
KAM1 112005Z 03005G11KT 05/M14 A3011 RMK A01 T00461140  RH  025%=      5-min Rain = 0
KAM1 112006Z 00006KT 05/M14 A3011 RMK A01 T00471138  RH  025%=      5-min Rain = 0
KAM1 112007Z 02003KT 05/M14 A3011 RMK A01 T00491138  RH  024%=      5-min Rain = 0
KAM1 112008Z 02005KT 05/M14 A3011 RMK A01 T00491139  RH  024%=      5-min Rain = 0
KAM1 112009Z 03005KT 05/M14 A3011 RMK A01 T00481140  RH  024%=      5-min Rain = 0
KAM1 112010Z 03004KT 05/M14 A3011 RMK A01 T00471142  RH  024%=      5-min Rain = 0
KAM1 112011Z 04005KT 05/M14 A3011 RMK A01 T00451143  RH  024%=      5-min Rain = 0
KAM1 112012Z 05003KT 05/M14 A3011 RMK A01 T00451142  RH  024%=      5-min Rain = 0
KAM1 112013Z 05001KT 05/M14 A3011 RMK A01 T00451143  RH  024%=      5-min Rain = 0
KAM1 112014Z 32001KT 05/M14 A3011 RMK A01 T00451142  RH  024%=      5-min Rain = 0
KAM1 112015Z 08001KT 05/M14 A3011 RMK A01 T00461141  RH  024%=      5-min Rain = 0
KAM1 112016Z 09003KT 05/M14 A3011 RMK A01 T00501139  RH  024%=      5-min Rain = 0
KAM1 112017Z 08003KT 05/M14 A3011 RMK A01 T00511140  RH  024%=      5-min Rain = 0
KAM1 112018Z 02004KT 05/M14 A3011 RMK A01 T00501142  RH  023%=      5-min Rain = 0
KAM1 112019Z 36006KT 05/M15 A3011 RMK A01 T00511145  RH  023%=      5-min Rain = 0
KAM1 112020Z 00007KT 05/M15 A3011 RMK A01 T00521147  RH  022%=      5-min Rain = 0
KAM1 112021Z 36008KT 05/M15 A3011 RMK A01 T00531147  RH  022%=      5-min Rain = 0
KAM1 112022Z 35006KT 05/M15 A3011 RMK A01 T00531148  RH  022%=      5-min Rain = 0
KAM1 112023Z 00007KT 05/M15 A3011 RMK A01 T00531149  RH  022%=      5-min Rain = 0
KAM1 112024Z 34006KT 06/M15 A3011 RMK A01 T00551147  RH  022%=      5-min Rain = 0
KAM1 112025Z 34007KT 06/M15 A3011 RMK A01 T00551151  RH  021%=      5-min Rain = 0
KAM1 112026Z 33002KT 05/M15 A3011 RMK A01 T00531152  RH  021%=      5-min Rain = 0
KAM1 112027Z 34002KT 05/M15 A3011 RMK A01 T00521152  RH  021%=      5-min Rain = 0
KAM1 112028Z 09002KT 05/M15 A3011 RMK A01 T00511153  RH  021%=      5-min Rain = 0
KAM1 112029Z 06004KT 05/M15 A3011 RMK A01 T00501154  RH  021%=      5-min Rain = 0
KAM1 112030Z 01002KT 05/M16 A3011 RMK A01 T00481155  RH  021%=      5-min Rain = 0
KAM1 112031Z 32006KT 05/M15 A3011 RMK A01 T00481154  RH  021%=      5-min Rain = 0
KAM1 112032Z 31005KT 05/M15 A3011 RMK A01 T00521152  RH  021%=      5-min Rain = 0
KAM1 112033Z 30003KT 05/M15 A3011 RMK A01 T00521152  RH  021%=      5-min Rain = 0
KAM1 112034Z 33004KT 05/M15 A3012 RMK A01 T00531151  RH  021%=      5-min Rain = 0
KAM1 112035Z 34002KT 05/M15 A3012 RMK A01 T00541151  RH  021%=      5-min Rain = 0
KAM1 112036Z 35006KT 05/M15 A3012 RMK A01 T00541150  RH  021%=      5-min Rain = 0
KAM1 112037Z 35007KT 06/M15 A3012 RMK A01 T00561148  RH  021%=      5-min Rain = 0
KAM1 112038Z 35006KT 06/M15 A3012 RMK A01 T00581148  RH  021%=      5-min Rain = 0
KAM1 112039Z 34004KT 06/M15 A3012 RMK A01 T00571149  RH  021%=      5-min Rain = 0
KAM1 112040Z 31001KT 05/M15 A3012 RMK A01 T00531153  RH  021%=      5-min Rain = 0
KAM1 112041Z 24001KT 05/M15 A3012 RMK A01 T00511153  RH  021%=      5-min Rain = 0
KAM1 112042Z 27002KT 05/M15 A3012 RMK A01 T00521150  RH  022%=      5-min Rain = 0
KAM1 112043Z 26003KT 05/M15 A3012 RMK A01 T00531149  RH  022%=      5-min Rain = 0
KAM1 112044Z 25005KT 05/M15 A3012 RMK A01 T00541149  RH  022%=      5-min Rain = 0
KAM1 112045Z 27004KT 06/M15 A3012 RMK A01 T00561149  RH  021%=      5-min Rain = 0
KAM1 112046Z 30003KT 06/M15 A3012 RMK A01 T00571147  RH  021%=      5-min Rain = 0
KAM1 112047Z 35005KT 06/M15 A3012 RMK A01 T00581148  RH  021%=      5-min Rain = 0
KAM1 112048Z 36008KT 06/M15 A3011 RMK A01 T00581152  RH  021%=      5-min Rain = 0
KAM1 112049Z 02008KT 06/M15 A3012 RMK A01 T00571153  RH  020%=      5-min Rain = 0
KAM1 112050Z 00007KT 06/M15 A3011 RMK A01 T00571153  RH  020%=      5-min Rain = 0
KAM1 112051Z 01006KT 06/M15 A3011 RMK A01 T00571153  RH  020%=      5-min Rain = 0
KAM1 112052Z 03006KT 06/M15 A3011 RMK A01 T00571154  RH  020%=      5-min Rain = 0
KAM1 112053Z 04004KT 06/M16 A3011 RMK A01 T00571155  RH  020%=      5-min Rain = 0
KAM1 112054Z 05003KT 06/M16 A3011 RMK A01 T00551155  RH  020%=      5-min Rain = 0
KAM1 112055Z 01003KT 06/M15 A3011 RMK A01 T00571152  RH  021%=      5-min Rain = 0
KAM1 112056Z 01007KT 06/M15 A3011 RMK A01 T00591152  RH  020%=      5-min Rain = 0
KAM1 112057Z 03005KT 06/M15 A3011 RMK A01 T00601153  RH  020%=      5-min Rain = 0
KAM1 112058Z 04005KT 06/M15 A3011 RMK A01 T00591154  RH  020%=      5-min Rain = 0
KAM1 112059Z 05004KT 06/M16 A3011 RMK A01 T00571156  RH  020%=      5-min Rain = 0
KAM1 112100Z 06004KT 06/M16 A3011 RMK A01 T00561155  RH  020%=      5-min Rain = 0
KAM1 112101Z 07006KT 06/M15 A3011 RMK A01 T00581153  RH  020%=      5-min Rain = 0
KAM1 112102Z 05003KT 06/M15 A3011 RMK A01 T00611151  RH  020%=      5-min Rain = 0
KAM1 112103Z 30004KT 06/M15 A3011 RMK A01 T00611153  RH  020%=      5-min Rain = 0
KAM1 112104Z 30006KT 06/M15 A3011 RMK A01 T00621152  RH  020%=      5-min Rain = 0
KAM1 112105Z 30006KT 06/M15 A3011 RMK A01 T00631151  RH  020%=      5-min Rain = 0
KAM1 112106Z 33006KT 06/M15 A3011 RMK A01 T00641151  RH  020%=      5-min Rain = 0
KAM1 112107Z 33008KT 06/M15 A3011 RMK A01 T00621154  RH  020%=      5-min Rain = 0
KAM1 112108Z 33004KT 06/M16 A3011 RMK A01 T00591156  RH  020%=      5-min Rain = 0
KAM1 112109Z 33004KT 06/M15 A3011 RMK A01 T00581153  RH  020%=      5-min Rain = 0
KAM1 112110Z 34007KT 06/M15 A3011 RMK A01 T00611152  RH  020%=      5-min Rain = 0
KAM1 112111Z 35007KT 06/M15 A3012 RMK A01 T00611153  RH  020%=      5-min Rain = 0
KAM1 112112Z 01004KT 06/M15 A3012 RMK A01 T00601154  RH  020%=      5-min Rain = 0
KAM1 112113Z 05003KT 06/M15 A3012 RMK A01 T00601154  RH  020%=      5-min Rain = 0
KAM1 112114Z 10002KT 06/M15 A3012 RMK A01 T00601154  RH  020%=      5-min Rain = 0
KAM1 112115Z 06001KT 06/M15 A3012 RMK A01 T00611152  RH  020%=      5-min Rain = 0
KAM1 112116Z 33002KT 06/M15 A3012 RMK A01 T00621151  RH  020%=      5-min Rain = 0
KAM1 112117Z 31003KT 07/M15 A3012 RMK A01 T00651150  RH  020%=      5-min Rain = 0
KAM1 112118Z 35001KT 07/M15 A3012 RMK A01 T00651150  RH  020%=      5-min Rain = 0
KAM1 112119Z 01004KT 07/M15 A3012 RMK A01 T00651151  RH  020%=      5-min Rain = 0
KAM1 112120Z 02003KT 07/M15 A3012 RMK A01 T00651152  RH  019%=      5-min Rain = 0
KAM1 112121Z 04001KT 07/M15 A3012 RMK A01 T00651153  RH  019%=      5-min Rain = 0
KAM1 112122Z 04002G7KT 06/M16 A3012 RMK A01 T00641155  RH  019%=      5-min Rain = 0
KAM1 112123Z 01007KT 06/M15 A3012 RMK A01 T00641153  RH  019%=      5-min Rain = 0
KAM1 112124Z 01007KT 07/M15 A3012 RMK A01 T00651153  RH  019%=      5-min Rain = 0
KAM1 112125Z 00005KT 06/M16 A3012 RMK A01 T00621155  RH  019%=      5-min Rain = 0
KAM1 112126Z 02005KT 06/M16 A3012 RMK A01 T00611155  RH  020%=      5-min Rain = 0
KAM1 112127Z 35007KT 06/M15 A3012 RMK A01 T00621152  RH  020%=      5-min Rain = 0
KAM1 112128Z 35007KT 06/M15 A3012 RMK A01 T00621153  RH  020%=      5-min Rain = 0
KAM1 112129Z 00003KT 06/M15 A3012 RMK A01 T00611154  RH  020%=      5-min Rain = 0
KAM1 112130Z 06002KT 06/M15 A3012 RMK A01 T00611153  RH  020%=      5-min Rain = 0
KAM1 112131Z 06003KT 06/M15 A3012 RMK A01 T00621152  RH  020%=      5-min Rain = 0
KAM1 112132Z 05002KT 06/M15 A3012 RMK A01 T00621152  RH  020%=      5-min Rain = 0
KAM1 112133Z 35003KT 06/M15 A3012 RMK A01 T00621152  RH  020%=      5-min Rain = 0
KAM1 112134Z 32002KT 06/M15 A3012 RMK A01 T00631152  RH  020%=      5-min Rain = 0
KAM1 112135Z 35002KT 06/M15 A3012 RMK A01 T00631153  RH  020%=      5-min Rain = 0
KAM1 112136Z 34004KT 06/M15 A3012 RMK A01 T00641152  RH  020%=      5-min Rain = 0
KAM1 112137Z 35003KT 06/M15 A3012 RMK A01 T00641153  RH  019%=      5-min Rain = 0
KAM1 112138Z 01005KT 06/M15 A3012 RMK A01 T00631154  RH  019%=      5-min Rain = 0
KAM1 112139Z 03006KT 06/M15 A3012 RMK A01 T00631154  RH  019%=      5-min Rain = 0
KAM1 112140Z 01007KT 07/M15 A3012 RMK A01 T00651150  RH  020%=      5-min Rain = 0
KAM1 112141Z 35006KT 07/M15 A3012 RMK A01 T00681151  RH  019%=      5-min Rain = 0
KAM1 112142Z 35006KT 07/M15 A3012 RMK A01 T00671153  RH  019%=      5-min Rain = 0
KAM1 112143Z 33009KT 07/M15 A3012 RMK A01 T00651153  RH  019%=      5-min Rain = 0
KAM1 112144Z 35007KT 07/M15 A3012 RMK A01 T00661152  RH  019%=      5-min Rain = 0
KAM1 112145Z 34003KT 07/M15 A3012 RMK A01 T00651153  RH  019%=      5-min Rain = 0
KAM1 112146Z 33004KT 07/M15 A3012 RMK A01 T00651151  RH  020%=      5-min Rain = 0
KAM1 112147Z 00008KT 07/M15 A3012 RMK A01 T00681148  RH  020%=      5-min Rain = 0
KAM1 112148Z 00006KT 07/M15 A3012 RMK A01 T00671152  RH  019%=      5-min Rain = 0
KAM1 112149Z 02006KT 07/M15 A3012 RMK A01 T00661152  RH  019%=      5-min Rain = 0
KAM1 112150Z 02005KT 06/M15 A3012 RMK A01 T00641153  RH  019%=      5-min Rain = 0
KAM1 112151Z 01006KT 07/M15 A3012 RMK A01 T00651151  RH  020%=      5-min Rain = 0
KAM1 112152Z 01005KT 07/M15 A3012 RMK A01 T00651151  RH  020%=      5-min Rain = 0
KAM1 112153Z 35006KT 07/M15 A3012 RMK A01 T00671150  RH  020%=      5-min Rain = 0
KAM1 112154Z 00006KT 07/M15 A3012 RMK A01 T00661151  RH  019%=      5-min Rain = 0
KAM1 112155Z 00004KT 06/M15 A3012 RMK A01 T00641153  RH  019%=      5-min Rain = 0
KAM1 112156Z 36002KT 06/M15 A3012 RMK A01 T00621154  RH  020%=      5-min Rain = 0
KAM1 112157Z 36005KT 06/M15 A3012 RMK A01 T00611153  RH  020%=      5-min Rain = 0
KAM1 112158Z 35005KT 06/M15 A3012 RMK A01 T00621152  RH  020%=      5-min Rain = 0
KAM1 112159Z 34004KT 06/M15 A3012 RMK A01 T00621153  RH  020%=      5-min Rain = 0
KAM1 112200Z 35004KT 06/M15 A3012 RMK A01 T00631152  RH  020%=      5-min Rain = 0
KAM1 112201Z 01005KT 06/M15 A3012 RMK A01 T00631153  RH  020%=      5-min Rain = 0
KAM1 112202Z 02004KT 06/M15 A3012 RMK A01 T00621153  RH  020%=      5-min Rain = 0
KAM1 112203Z 03005KT 06/M15 A3012 RMK A01 T00621153  RH  020%=      5-min Rain = 0
KAM1 112204Z 04004KT 06/M15 A3012 RMK A01 T00631152  RH  020%=      5-min Rain = 0
KAM1 112205Z 04004KT 06/M15 A3012 RMK A01 T00631153  RH  020%=      5-min Rain = 0
KAM1 112206Z 01002KT 06/M15 A3012 RMK A01 T00621154  RH  020%=      5-min Rain = 0
KAM1 112207Z 04000KT 06/M15 A3012 RMK A01 T00611154  RH  020%=      5-min Rain = 0
KAM1 112208Z 34001KT 06/M15 A3012 RMK A01 T00631153  RH  020%=      5-min Rain = 0
KAM1 112209Z 35003KT 06/M15 A3012 RMK A01 T00641153  RH  019%=      5-min Rain = 0
KAM1 112210Z 35005KT 07/M15 A3012 RMK A01 T00651153  RH  019%=      5-min Rain = 0
KAM1 112211Z 34005KT 07/M15 A3012 RMK A01 T00651153  RH  019%=      5-min Rain = 0
KAM1 112212Z 01002KT 06/M15 A3012 RMK A01 T00641153  RH  019%=      5-min Rain = 0
KAM1 112213Z 34001KT 06/M15 A3012 RMK A01 T00641154  RH  019%=      5-min Rain = 0
KAM1 112214Z 01000KT 06/M15 A3012 RMK A01 T00641154  RH  019%=      5-min Rain = 0
KAM1 112215Z 34002KT 06/M15 A3012 RMK A01 T00641154  RH  019%=      5-min Rain = 0
KAM1 112216Z 35001KT 07/M15 A3012 RMK A01 T00651153  RH  019%=      5-min Rain = 0
KAM1 112217Z 03003KT 07/M15 A3012 RMK A01 T00651153  RH  019%=      5-min Rain = 0
KAM1 112218Z 04005KT 07/M15 A3012 RMK A01 T00661153  RH  019%=      5-min Rain = 0
KAM1 112219Z 04004KT 07/M15 A3012 RMK A01 T00661153  RH  019%=      5-min Rain = 0
KAM1 112220Z 03005KT 07/M15 A3012 RMK A01 T00661153  RH  019%=      5-min Rain = 0
KAM1 112221Z 02004KT 07/M15 A3012 RMK A01 T00661154  RH  019%=      5-min Rain = 0
KAM1 112222Z 03002KT 07/M15 A3012 RMK A01 T00651154  RH  019%=      5-min Rain = 0
KAM1 112223Z 05001KT 06/M16 A3012 RMK A01 T00641155  RH  019%=      5-min Rain = 0
KAM1 112224Z 10000KT 06/M16 A3012 RMK A01 T00641155  RH  019%=      5-min Rain = 0
KAM1 112225Z 00000KT 06/M15 A3012 RMK A01 T00641154  RH  019%=      5-min Rain = 0
KAM1 112226Z 07001KT 07/M15 A3012 RMK A01 T00651153  RH  019%=      5-min Rain = 0
KAM1 112227Z 03003KT 07/M15 A3012 RMK A01 T00661153  RH  019%=      5-min Rain = 0
KAM1 112228Z 03003KT 07/M15 A3012 RMK A01 T00661154  RH  019%=      5-min Rain = 0
KAM1 112229Z 04001KT 07/M15 A3012 RMK A01 T00651154  RH  019%=      5-min Rain = 0
KAM1 112230Z 02002KT 07/M15 A3012 RMK A01 T00661153  RH  019%=      5-min Rain = 0
KAM1 112231Z 03003KT 07/M15 A3012 RMK A01 T00661153  RH  019%=      5-min Rain = 0
KAM1 112232Z 01003KT 07/M15 A3012 RMK A01 T00671153  RH  019%=      5-min Rain = 0
KAM1 112233Z 34006KT 07/M15 A3012 RMK A01 T00681153  RH  019%=      5-min Rain = 0
KAM1 112234Z 33004KT 07/M15 A3012 RMK A01 T00681153  RH  019%=      5-min Rain = 0
KAM1 112235Z 35006KT 07/M15 A3012 RMK A01 T00671154  RH  019%=      5-min Rain = 0
KAM1 112236Z 36004KT 07/M15 A3012 RMK A01 T00671153  RH  019%=      5-min Rain = 0
KAM1 112237Z 34003KT 07/M15 A3012 RMK A01 T00671153  RH  019%=      5-min Rain = 0
KAM1 112238Z 32006KT 07/M15 A3012 RMK A01 T00681152  RH  019%=      5-min Rain = 0
KAM1 112239Z 32005KT 07/M15 A3012 RMK A01 T00691152  RH  019%=      5-min Rain = 0
KAM1 112240Z 31004KT 07/M15 A3012 RMK A01 T00691152  RH  019%=      5-min Rain = 0
KAM1 112241Z 35001KT 07/M15 A3012 RMK A01 T00681153  RH  019%=      5-min Rain = 0
KAM1 112242Z 00001KT 07/M15 A3012 RMK A01 T00671153  RH  019%=      5-min Rain = 0
KAM1 112243Z 31003KT 07/M15 A3012 RMK A01 T00671153  RH  019%=      5-min Rain = 0
KAM1 112244Z 31002KT 07/M15 A3012 RMK A01 T00681152  RH  019%=      5-min Rain = 0
KAM1 112245Z 34000KT 07/M15 A3012 RMK A01 T00691152  RH  019%=      5-min Rain = 0
KAM1 112246Z 13000KT 07/M15 A3012 RMK A01 T00701151  RH  019%=      5-min Rain = 0
KAM1 112247Z 28002KT 07/M15 A3012 RMK A01 T00701152  RH  019%=      5-min Rain = 0
KAM1 112248Z 28002KT 07/M15 A3012 RMK A01 T00711151  RH  019%=      5-min Rain = 0
KAM1 112249Z 28003KT 07/M15 A3012 RMK A01 T00721151  RH  019%=      5-min Rain = 0
KAM1 112250Z 28003KT 07/M15 A3012 RMK A01 T00731151  RH  019%=      5-min Rain = 0
KAM1 112251Z 29002KT 07/M15 A3012 RMK A01 T00721152  RH  018%=      5-min Rain = 0
KAM1 112252Z 32002KT 07/M15 A3012 RMK A01 T00721152  RH  019%=      5-min Rain = 0
KAM1 112253Z 01002KT 07/M15 A3012 RMK A01 T00711153  RH  019%=      5-min Rain = 0
KAM1 112254Z 01004KT 07/M15 A3012 RMK A01 T00711153  RH  019%=      5-min Rain = 0
KAM1 112255Z 03004KT 07/M16 A3012 RMK A01 T00691155  RH  019%=      5-min Rain = 0
KAM1 112256Z 36003KT 07/M16 A3012 RMK A01 T00671155  RH  019%=      5-min Rain = 0
KAM1 112257Z 00003KT 07/M15 A3012 RMK A01 T00661154  RH  019%=      5-min Rain = 0
KAM1 112258Z 01003KT 07/M15 A3012 RMK A01 T00661154  RH  019%=      5-min Rain = 0
KAM1 112259Z 35002KT 07/M15 A3012 RMK A01 T00661154  RH  019%=      5-min Rain = 0
KAM1 112300Z 33002KT 07/M15 A3012 RMK A01 T00661153  RH  019%=      5-min Rain = 0
KAM1 112301Z 33001KT 07/M15 A3012 RMK A01 T00661154  RH  019%=      5-min Rain = 0
KAM1 112302Z 25000KT 07/M15 A3012 RMK A01 T00671153  RH  019%=      5-min Rain = 0
KAM1 112303Z 04000KT 07/M15 A3013 RMK A01 T00701151  RH  019%=      5-min Rain = 0
KAM1 112304Z 04003KT 07/M15 A3013 RMK A01 T00711151  RH  019%=      5-min Rain = 0
KAM1 112305Z 05002KT 07/M15 A3013 RMK A01 T00701154  RH  019%=      5-min Rain = 0
KAM1 112306Z 05003KT 07/M15 A3013 RMK A01 T00691154  RH  019%=      5-min Rain = 0
KAM1 112307Z 06002KT 07/M16 A3013 RMK A01 T00671155  RH  019%=      5-min Rain = 0
KAM1 112308Z 07005KT 07/M16 A3013 RMK A01 T00671155  RH  019%=      5-min Rain = 0
KAM1 112309Z 08004KT 07/M15 A3013 RMK A01 T00671154  RH  019%=      5-min Rain = 0
KAM1 112310Z 07004KT 07/M16 A3013 RMK A01 T00661155  RH  019%=      5-min Rain = 0
KAM1 112311Z 07003KT 07/M15 A3013 RMK A01 T00661154  RH  019%=      5-min Rain = 0
KAM1 112312Z 07003KT 07/M15 A3013 RMK A01 T00661154  RH  019%=      5-min Rain = 0
KAM1 112313Z 06004KT 07/M15 A3013 RMK A01 T00661154  RH  019%=      5-min Rain = 0
KAM1 112314Z 04003KT 07/M15 A3013 RMK A01 T00671153  RH  019%=      5-min Rain = 0
KAM1 112315Z 04003KT 07/M15 A3013 RMK A01 T00661154  RH  019%=      5-min Rain = 0
KAM1 112316Z 06003KT 07/M16 A3013 RMK A01 T00651155  RH  019%=      5-min Rain = 0
KAM1 112317Z 06002KT 07/M16 A3013 RMK A01 T00651155  RH  019%=      5-min Rain = 0
KAM1 112318Z 03002KT 06/M16 A3013 RMK A01 T00641155  RH  019%=      5-min Rain = 0
KAM1 112319Z 02002KT 06/M16 A3013 RMK A01 T00641155  RH  019%=      5-min Rain = 0
KAM1 112320Z 08002KT 06/M16 A3013 RMK A01 T00641155  RH  019%=      5-min Rain = 0
KAM1 112321Z 07005KT 07/M15 A3013 RMK A01 T00651154  RH  019%=      5-min Rain = 0
KAM1 112322Z 06004KT 07/M15 A3013 RMK A01 T00651153  RH  019%=      5-min Rain = 0
KAM1 112323Z 07003KT 07/M15 A3013 RMK A01 T00651153  RH  019%=      5-min Rain = 0
KAM1 112324Z 08003KT 07/M15 A3013 RMK A01 T00651154  RH  019%=      5-min Rain = 0
KAM1 112325Z 10004KT 07/M15 A3013 RMK A01 T00651154  RH  019%=      5-min Rain = 0
KAM1 112326Z 11003KT 06/M16 A3013 RMK A01 T00641155  RH  019%=      5-min Rain = 0
KAM1 112327Z 10002KT 06/M16 A3013 RMK A01 T00641155  RH  019%=      5-min Rain = 0
KAM1 112328Z 12001KT 06/M16 A3013 RMK A01 T00631155  RH  019%=      5-min Rain = 0
KAM1 112329Z 12001KT 06/M16 A3013 RMK A01 T00631155  RH  019%=      5-min Rain = 0
KAM1 112330Z 09002KT 06/M15 A3013 RMK A01 T00641154  RH  019%=      5-min Rain = 0
KAM1 112331Z 08002KT 07/M15 A3013 RMK A01 T00651153  RH  019%=      5-min Rain = 0
KAM1 112332Z 07003KT 07/M15 A3013 RMK A01 T00651153  RH  019%=      5-min Rain = 0
KAM1 112333Z 08002KT 06/M15 A3013 RMK A01 T00641154  RH  019%=      5-min Rain = 0
KAM1 112334Z 08002KT 06/M15 A3013 RMK A01 T00641154  RH  019%=      5-min Rain = 0
KAM1 112335Z 09002KT 06/M15 A3013 RMK A01 T00641153  RH  019%=      5-min Rain = 0
KAM1 112336Z 09002KT 06/M15 A3013 RMK A01 T00641154  RH  019%=      5-min Rain = 0
KAM1 112337Z 12002KT 06/M15 A3013 RMK A01 T00631154  RH  019%=      5-min Rain = 0
KAM1 112338Z 11002KT 06/M15 A3013 RMK A01 T00631154  RH  019%=      5-min Rain = 0
KAM1 112339Z 13002KT 06/M15 A3013 RMK A01 T00631153  RH  019%=      5-min Rain = 0
KAM1 112340Z 14002KT 06/M15 A3013 RMK A01 T00631154  RH  019%=      5-min Rain = 0
KAM1 112341Z 14002KT 06/M15 A3013 RMK A01 T00631154  RH  019%=      5-min Rain = 0
KAM1 112342Z 15001KT 06/M15 A3013 RMK A01 T00631154  RH  019%=      5-min Rain = 0
KAM1 112343Z 14002KT 06/M15 A3013 RMK A01 T00631154  RH  019%=      5-min Rain = 0
KAM1 112344Z 13002KT 06/M15 A3013 RMK A01 T00641153  RH  019%=      5-min Rain = 0
KAM1 112345Z 13001KT 06/M15 A3013 RMK A01 T00641154  RH  019%=      5-min Rain = 0
KAM1 112346Z 13000KT 06/M15 A3013 RMK A01 T00631154  RH  019%=      5-min Rain = 0
KAM1 112347Z 00000KT 06/M15 A3013 RMK A01 T00631153  RH  019%=      5-min Rain = 0
KAM1 112348Z 00000KT 06/M15 A3013 RMK A01 T00641153  RH  019%=      5-min Rain = 0
KAM1 112349Z 00000KT 06/M15 A3013 RMK A01 T00641153  RH  019%=      5-min Rain = 0
KAM1 112350Z 13001KT 07/M15 A3013 RMK A01 T00651153  RH  019%=      5-min Rain = 0
KAM1 112351Z 12001KT 07/M15 A3013 RMK A01 T00651154  RH  019%=      5-min Rain = 0
KAM1 112352Z 11002KT 06/M15 A3013 RMK A01 T00641154  RH  019%=      5-min Rain = 0
KAM1 112353Z 12002KT 06/M16 A3013 RMK A01 T00621155  RH  019%=      5-min Rain = 0
KAM1 112354Z 11002KT 06/M16 A3013 RMK A01 T00611155  RH  020%=      5-min Rain = 0
KAM1 112355Z 10002KT 06/M16 A3013 RMK A01 T00601155  RH  020%=      5-min Rain = 0
KAM1 112356Z 11003KT 06/M16 A3013 RMK A01 T00591155  RH  020%=      5-min Rain = 0
KAM1 112357Z 11004KT 06/M16 A3013 RMK A01 T00581155  RH  020%=      5-min Rain = 0
KAM1 112358Z 13004KT 06/M16 A3013 RMK A01 T00561155  RH  020%=      5-min Rain = 0
KAM1 112359Z 13005KT 05/M16 A3013 RMK A01 T00541156  RH  020%=      5-min Rain = 0
KAM1 120000Z 13005KT 05/M16 A3013 RMK A01 T00511156  RH  021%=      5-min Rain = 0
KAM1 120001Z 13005KT 05/M16 A3013 RMK A01 T00491156  RH  021%=      5-min Rain = 0
KAM1 120002Z 13005KT 05/M16 A3013 RMK A01 T00481155  RH  021%=      5-min Rain = 0
KAM1 120003Z 12005KT 05/M16 A3013 RMK A01 T00461156  RH  022%=      5-min Rain = 0
KAM1 120004Z 12005KT 04/M16 A3013 RMK A01 T00441156  RH  022%=      5-min Rain = 0
KAM1 120005Z 13005KT 04/M16 A3013 RMK A01 T00421155  RH  022%=      5-min Rain = 0
KAM1 120006Z 12004KT 04/M15 A3013 RMK A01 T00411154  RH  022%=      5-min Rain = 0
KAM1 120007Z 12004KT 04/M15 A3013 RMK A01 T00401154  RH  023%=      5-min Rain = 0
KAM1 120008Z 12004KT 04/M15 A3013 RMK A01 T00391152  RH  023%=      5-min Rain = 0
KAM1 120009Z 12004KT 04/M15 A3013 RMK A01 T00401151  RH  023%=      5-min Rain = 0
KAM1 120010Z 12004KT 04/M15 A3013 RMK A01 T00391151  RH  024%=      5-min Rain = 0
KAM1 120011Z 12004KT 04/M15 A3013 RMK A01 T00371150  RH  024%=      5-min Rain = 0
KAM1 120012Z 12004KT 04/M15 A3013 RMK A01 T00371148  RH  024%=      5-min Rain = 0
KAM1 120013Z 13004KT 04/M15 A3013 RMK A01 T00371146  RH  025%=      5-min Rain = 0
KAM1 120014Z 13004KT 04/M15 A3013 RMK A01 T00351148  RH  025%=      5-min Rain = 0
KAM1 120015Z 12005KT 03/M15 A3013 RMK A01 T00341149  RH  025%=      5-min Rain = 0
KAM1 120016Z 13006KT 03/M15 A3013 RMK A01 T00321151  RH  025%=      5-min Rain = 0
KAM1 120017Z 14006KT 03/M15 A3013 RMK A01 T00301153  RH  025%=      5-min Rain = 0
KAM1 120018Z 14005KT 03/M16 A3013 RMK A01 T00271155  RH  025%=      5-min Rain = 0
KAM1 120019Z 14005KT 03/M16 A3013 RMK A01 T00251155  RH  025%=      5-min Rain = 0
KAM1 120020Z 13005KT 02/M15 A3013 RMK A01 T00241153  RH  026%=      5-min Rain = 0
KAM1 120021Z 13004KT 02/M15 A3013 RMK A01 T00231153  RH  026%=      5-min Rain = 0
KAM1 120022Z 13005KT 02/M15 A3013 RMK A01 T00211153  RH  026%=      5-min Rain = 0
KAM1 120023Z 13005KT 02/M15 A3013 RMK A01 T00201152  RH  027%=      5-min Rain = 0
KAM1 120024Z 13005KT 02/M15 A3013 RMK A01 T00191153  RH  027%=      5-min Rain = 0
KAM1 120025Z 13005KT 02/M15 A3013 RMK A01 T00181152  RH  027%=      5-min Rain = 0
KAM1 120026Z 12005KT 02/M15 A3013 RMK A01 T00181150  RH  028%=      5-min Rain = 0
KAM1 120027Z 12005KT 02/M15 A3013 RMK A01 T00181149  RH  028%=      5-min Rain = 0
KAM1 120028Z 12005KT 02/M15 A3013 RMK A01 T00191149  RH  028%=      5-min Rain = 0
KAM1 120029Z 11005KT 02/M15 A3013 RMK A01 T00191149  RH  028%=      5-min Rain = 0
KAM1 120030Z 11005KT 02/M15 A3013 RMK A01 T00191150  RH  027%=      5-min Rain = 0
KAM1 120031Z 11005KT 02/M15 A3014 RMK A01 T00181151  RH  027%=      5-min Rain = 0
KAM1 120032Z 11005KT 02/M15 A3014 RMK A01 T00181151  RH  027%=      5-min Rain = 0
KAM1 120033Z 11005KT 02/M15 A3014 RMK A01 T00181149  RH  028%=      5-min Rain = 0
KAM1 120034Z 11006KT 02/M15 A3014 RMK A01 T00181149  RH  028%=      5-min Rain = 0
KAM1 120035Z 11006KT 02/M15 A3014 RMK A01 T00181146  RH  029%=      5-min Rain = 0
KAM1 120036Z 11006KT 02/M14 A3014 RMK A01 T00171144  RH  029%=      5-min Rain = 0
KAM1 120037Z 11006KT 02/M14 A3014 RMK A01 T00161141  RH  030%=      5-min Rain = 0
KAM1 120038Z 11006KT 02/M14 A3014 RMK A01 T00161139  RH  031%=      5-min Rain = 0
KAM1 120039Z 10006KT 02/M14 A3014 RMK A01 T00151138  RH  031%=      5-min Rain = 0
KAM1 120040Z 10006KT 01/M14 A3014 RMK A01 T00131136  RH  032%=      5-min Rain = 0
KAM1 120041Z 11006KT 01/M14 A3014 RMK A01 T00121136  RH  032%=      5-min Rain = 0
KAM1 120042Z 11005KT 01/M14 A3014 RMK A01 T00111137  RH  032%=      5-min Rain = 0
KAM1 120043Z 11005KT 01/M14 A3014 RMK A01 T00091141  RH  032%=      5-min Rain = 0
KAM1 120044Z 11005KT 01/M15 A3014 RMK A01 T00071146  RH  031%=      5-min Rain = 0
KAM1 120045Z 11006KT 01/M15 A3014 RMK A01 T00051151  RH  030%=      5-min Rain = 0
KAM1 120046Z 11006KT 00/M15 A3014 RMK A01 T00031153  RH  030%=      5-min Rain = 0
KAM1 120047Z 11005KT 00/M15 A3014 RMK A01 T00021154  RH  030%=      5-min Rain = 0
KAM1 120048Z 11005KT 00/M16 A3014 RMK A01 T00011155  RH  030%=      5-min Rain = 0
KAM1 120049Z 11005KT 00/M16 A3014 RMK A01 T00011155  RH  030%=      5-min Rain = 0
KAM1 120050Z 11005KT 00/16 A3014 RMK A01 T00000-155  RH  030%=      5-min Rain = 0
KAM1 120051Z 11005KT M00/M16 A3014 RMK A01 T10011155  RH  030%=      5-min Rain = 0
KAM1 120052Z 11005KT M00/M15 A3014 RMK A01 T10021153  RH  031%=      5-min Rain = 0
KAM1 120053Z 11004KT M00/M15 A3014 RMK A01 T10031149  RH  032%=      5-min Rain = 0
KAM1 120054Z 12004KT M00/M15 A3014 RMK A01 T10041147  RH  033%=      5-min Rain = 0
KAM1 120055Z 12004KT M00/M15 A3014 RMK A01 T10041149  RH  033%=      5-min Rain = 0
KAM1 120056Z 11004KT M00/M15 A3014 RMK A01 T10041154  RH  031%=      5-min Rain = 0
KAM1 120057Z 11005KT M00/M16 A3014 RMK A01 T10031157  RH  030%=      5-min Rain = 0
KAM1 120058Z 11005KT M00/M16 A3014 RMK A01 T10031161  RH  029%=      5-min Rain = 0
KAM1 120059Z 10005KT M00/M17 A3014 RMK A01 T10031165  RH  028%=      5-min Rain = 0
KAM1 120100Z 10005KT M00/M17 A3014 RMK A01 T10031169  RH  027%=      5-min Rain = 0
KAM1 120101Z 10005KT M00/M17 A3014 RMK A01 T10041172  RH  027%=      5-min Rain = 0
KAM1 120102Z 10005KT M01/M17 A3014 RMK A01 T10051173  RH  027%=      5-min Rain = 0
KAM1 120103Z 10005KT M01/M18 A3014 RMK A01 T10061175  RH  027%=      5-min Rain = 0
KAM1 120104Z 10005KT M01/M18 A3014 RMK A01 T10081176  RH  027%=      5-min Rain = 0
KAM1 120105Z 10005KT M01/M18 A3014 RMK A01 T10091176  RH  027%=      5-min Rain = 0
KAM1 120106Z 10006KT M01/M18 A3014 RMK A01 T10101176  RH  027%=      5-min Rain = 0
KAM1 120107Z 10006KT M01/M18 A3014 RMK A01 T10111176  RH  027%=      5-min Rain = 0
KAM1 120108Z 10006KT M01/M18 A3014 RMK A01 T10111176  RH  027%=      5-min Rain = 0
KAM1 120109Z 10006KT M01/M18 A3014 RMK A01 T10101176  RH  027%=      5-min Rain = 0
KAM1 120110Z 11006KT M01/M18 A3014 RMK A01 T10111177  RH  027%=      5-min Rain = 0
KAM1 120111Z 11006KT M01/M18 A3014 RMK A01 T10121177  RH  027%=      5-min Rain = 0
KAM1 120112Z 11005KT M01/M18 A3014 RMK A01 T10121176  RH  028%=      5-min Rain = 0
KAM1 120113Z 11005KT M01/M18 A3014 RMK A01 T10131177  RH  028%=      5-min Rain = 0
KAM1 120114Z 11005KT M01/M18 A3014 RMK A01 T10141177  RH  028%=      5-min Rain = 0
KAM1 120115Z 11005KT M01/M18 A3014 RMK A01 T10141178  RH  028%=      5-min Rain = 0
KAM1 120116Z 12005KT M01/M18 A3014 RMK A01 T10121176  RH  027%=      5-min Rain = 0
KAM1 120117Z 12005KT M01/M18 A3015 RMK A01 T10101176  RH  027%=      5-min Rain = 0
KAM1 120118Z 12005KT M01/M18 A3015 RMK A01 T10091175  RH  027%=      5-min Rain = 0
KAM1 120119Z 12005KT M01/M17 A3015 RMK A01 T10081174  RH  027%=      5-min Rain = 0
KAM1 120120Z 12005KT M01/M17 A3015 RMK A01 T10081173  RH  027%=      5-min Rain = 0
KAM1 120121Z 12005KT M01/M17 A3015 RMK A01 T10081172  RH  028%=      5-min Rain = 0
KAM1 120122Z 12005KT M01/M17 A3015 RMK A01 T10091171  RH  028%=      5-min Rain = 0
KAM1 120123Z 12005KT M01/M17 A3015 RMK A01 T10101170  RH  029%=      5-min Rain = 0
KAM1 120124Z 12005KT M01/M17 A3015 RMK A01 T10121168  RH  029%=      5-min Rain = 0
KAM1 120125Z 12006KT M01/M16 A3015 RMK A01 T10121162  RH  031%=      5-min Rain = 0
KAM1 120126Z 12006KT M01/M16 A3015 RMK A01 T10111157  RH  032%=      5-min Rain = 0
KAM1 120127Z 12006KT M01/M16 A3015 RMK A01 T10121157  RH  032%=      5-min Rain = 0
KAM1 120128Z 12007KT M01/M16 A3015 RMK A01 T10121159  RH  032%=      5-min Rain = 0
KAM1 120129Z 11007KT M01/M16 A3015 RMK A01 T10141161  RH  032%=      5-min Rain = 0
KAM1 120130Z 11007KT M02/M16 A3015 RMK A01 T10161163  RH  031%=      5-min Rain = 0
KAM1 120131Z 12006KT M02/M17 A3015 RMK A01 T10171165  RH  031%=      5-min Rain = 0
KAM1 120132Z 12006KT M02/M17 A3015 RMK A01 T10181166  RH  031%=      5-min Rain = 0
KAM1 120133Z 13006KT M02/M17 A3015 RMK A01 T10191165  RH  032%=      5-min Rain = 0
KAM1 120134Z 13006KT M02/M17 A3015 RMK A01 T10201165  RH  032%=      5-min Rain = 0
KAM1 120135Z 13006KT M02/M17 A3015 RMK A01 T10211165  RH  032%=      5-min Rain = 0
KAM1 120136Z 12007KT M02/M16 A3015 RMK A01 T10221163  RH  033%=      5-min Rain = 0
KAM1 120137Z 12007KT M02/M16 A3015 RMK A01 T10231162  RH  034%=      5-min Rain = 0
KAM1 120138Z 12006KT M02/M16 A3015 RMK A01 T10241161  RH  034%=      5-min Rain = 0
KAM1 120139Z 12006KT M02/M16 A3015 RMK A01 T10241161  RH  034%=      5-min Rain = 0
KAM1 120140Z 12006KT M03/M16 A3016 RMK A01 T10251160  RH  035%=      5-min Rain = 0
KAM1 120141Z 12006KT M03/M16 A3016 RMK A01 T10251160  RH  035%=      5-min Rain = 0
KAM1 120142Z 12006KT M03/M16 A3016 RMK A01 T10251159  RH  035%=      5-min Rain = 0
KAM1 120143Z 12006KT M03/M16 A3016 RMK A01 T10251159  RH  035%=      5-min Rain = 0
KAM1 120144Z 12006KT M02/M16 A3016 RMK A01 T10241158  RH  035%=      5-min Rain = 0
KAM1 120145Z 12006KT M02/M16 A3016 RMK A01 T10241157  RH  035%=      5-min Rain = 0
KAM1 120146Z 12006KT M02/M16 A3016 RMK A01 T10231156  RH  035%=      5-min Rain = 0
KAM1 120147Z 12005KT M02/M16 A3016 RMK A01 T10231155  RH  036%=      5-min Rain = 0
KAM1 120148Z 13005KT M02/M15 A3016 RMK A01 T10231154  RH  036%=      5-min Rain = 0
KAM1 120149Z 13005KT M02/M15 A3016 RMK A01 T10231154  RH  036%=      5-min Rain = 0
KAM1 120150Z 13005KT M02/M15 A3016 RMK A01 T10231152  RH  036%=      5-min Rain = 0
KAM1 120151Z 13006KT M02/M15 A3016 RMK A01 T10211149  RH  037%=      5-min Rain = 0
KAM1 120152Z 13005KT M02/M15 A3016 RMK A01 T10201149  RH  037%=      5-min Rain = 0
KAM1 120153Z 13005KT M02/M15 A3016 RMK A01 T10211150  RH  037%=      5-min Rain = 0
KAM1 120154Z 13005KT M02/M15 A3016 RMK A01 T10201150  RH  036%=      5-min Rain = 0
KAM1 120155Z 13005KT M02/M15 A3016 RMK A01 T10201149  RH  036%=      5-min Rain = 0
KAM1 120156Z 13006KT M02/M15 A3016 RMK A01 T10171149  RH  036%=      5-min Rain = 0
KAM1 120157Z 13006KT M02/M15 A3016 RMK A01 T10151151  RH  035%=      5-min Rain = 0
KAM1 120158Z 13006KT M01/M15 A3016 RMK A01 T10141152  RH  034%=      5-min Rain = 0
KAM1 120159Z 13006KT M01/M15 A3017 RMK A01 T10141154  RH  033%=      5-min Rain = 0
KAM1 120200Z 13006KT M01/M16 A3017 RMK A01 T10141156  RH  033%=      5-min Rain = 0
KAM1 120201Z 13006KT M02/M16 A3017 RMK A01 T10161159  RH  033%=      5-min Rain = 0
KAM1 120202Z 14006KT M02/M16 A3017 RMK A01 T10181162  RH  032%=      5-min Rain = 0
KAM1 120203Z 13005KT M02/M16 A3017 RMK A01 T10201164  RH  032%=      5-min Rain = 0
KAM1 120204Z 13006KT M02/M16 A3017 RMK A01 T10211164  RH  032%=      5-min Rain = 0
KAM1 120205Z 13006KT M02/M16 A3017 RMK A01 T10201164  RH  032%=      5-min Rain = 0
KAM1 120206Z 13006KT M02/M17 A3017 RMK A01 T10201165  RH  032%=      5-min Rain = 0
KAM1 120207Z 13006KT M02/M17 A3017 RMK A01 T10201165  RH  032%=      5-min Rain = 0
KAM1 120208Z 13006KT M02/M17 A3017 RMK A01 T10211166  RH  032%=      5-min Rain = 0
KAM1 120209Z 14005KT M02/M17 A3017 RMK A01 T10231166  RH  032%=      5-min Rain = 0
KAM1 120210Z 15004KT M02/M17 A3017 RMK A01 T10241165  RH  033%=      5-min Rain = 0
KAM1 120211Z 15004KT M03/M17 A3017 RMK A01 T10261165  RH  033%=      5-min Rain = 0
KAM1 120212Z 15005KT M03/M17 A3017 RMK A01 T10271166  RH  033%=      5-min Rain = 0
KAM1 120213Z 15005KT M03/M17 A3017 RMK A01 T10271169  RH  033%=      5-min Rain = 0
KAM1 120214Z 15006KT M03/M17 A3017 RMK A01 T10271170  RH  032%=      5-min Rain = 0
KAM1 120215Z 15006KT M03/M17 A3017 RMK A01 T10271171  RH  032%=      5-min Rain = 0
KAM1 120216Z 14006KT M03/M17 A3017 RMK A01 T10281172  RH  032%=      5-min Rain = 0
KAM1 120217Z 14006KT M03/M17 A3017 RMK A01 T10281172  RH  032%=      5-min Rain = 0
KAM1 120218Z 14005KT M03/M17 A3017 RMK A01 T10291172  RH  032%=      5-min Rain = 0
KAM1 120219Z 14005KT M03/M17 A3017 RMK A01 T10291171  RH  032%=      5-min Rain = 0
KAM1 120220Z 13005KT M03/M17 A3017 RMK A01 T10271170  RH  032%=      5-min Rain = 0
KAM1 120221Z 13004KT M03/M17 A3017 RMK A01 T10261169  RH  032%=      5-min Rain = 0
KAM1 120222Z 13005KT M03/M17 A3017 RMK A01 T10261169  RH  032%=      5-min Rain = 0
KAM1 120223Z 13005KT M03/M17 A3017 RMK A01 T10271167  RH  033%=      5-min Rain = 0
KAM1 120224Z 13004KT M03/M16 A3017 RMK A01 T10271164  RH  034%=      5-min Rain = 0
KAM1 120225Z 13004KT M03/M16 A3018 RMK A01 T10281163  RH  034%=      5-min Rain = 0
KAM1 120226Z 12004KT M03/M16 A3018 RMK A01 T10281161  RH  035%=      5-min Rain = 0
KAM1 120227Z 13004KT M03/M16 A3018 RMK A01 T10291162  RH  035%=      5-min Rain = 0
KAM1 120228Z 13004KT M03/M16 A3018 RMK A01 T10301163  RH  035%=      5-min Rain = 0
KAM1 120229Z 13005KT M03/M17 A3018 RMK A01 T10311166  RH  034%=      5-min Rain = 0
KAM1 120230Z 13005KT M03/M17 A3018 RMK A01 T10311168  RH  034%=      5-min Rain = 0
KAM1 120231Z 13005KT M03/M17 A3018 RMK A01 T10301170  RH  033%=      5-min Rain = 0
KAM1 120232Z 13005KT M03/M17 A3018 RMK A01 T10291170  RH  033%=      5-min Rain = 0
KAM1 120233Z 13005KT M03/M17 A3018 RMK A01 T10281172  RH  032%=      5-min Rain = 0
KAM1 120234Z 13005KT M03/M17 A3018 RMK A01 T10281172  RH  032%=      5-min Rain = 0
KAM1 120235Z 13005KT M03/M17 A3018 RMK A01 T10271168  RH  033%=      5-min Rain = 0
KAM1 120236Z 13005KT M03/M16 A3018 RMK A01 T10261164  RH  034%=      5-min Rain = 0
KAM1 120237Z 13005KT M03/M16 A3018 RMK A01 T10261163  RH  034%=      5-min Rain = 0
KAM1 120238Z 13005KT M03/M16 A3018 RMK A01 T10271163  RH  034%=      5-min Rain = 0
KAM1 120239Z 13004KT M03/M16 A3018 RMK A01 T10291162  RH  035%=      5-min Rain = 0
KAM1 120240Z 13004KT M03/M16 A3018 RMK A01 T10291160  RH  036%=      5-min Rain = 0
KAM1 120241Z 13005KT M03/M16 A3018 RMK A01 T10301160  RH  036%=      5-min Rain = 0
KAM1 120242Z 13005KT M03/M16 A3018 RMK A01 T10311159  RH  037%=      5-min Rain = 0
KAM1 120243Z 13005KT M03/M16 A3018 RMK A01 T10311158  RH  037%=      5-min Rain = 0
KAM1 120244Z 13004KT M03/M16 A3018 RMK A01 T10301156  RH  037%=      5-min Rain = 0
KAM1 120245Z 13004KT M03/M16 A3018 RMK A01 T10291155  RH  037%=      5-min Rain = 0
KAM1 120246Z 13005KT M03/M16 A3018 RMK A01 T10291157  RH  037%=      5-min Rain = 0
KAM1 120247Z 13005KT M03/M16 A3018 RMK A01 T10321160  RH  036%=      5-min Rain = 0
KAM1 120248Z 13005KT M03/M16 A3018 RMK A01 T10331162  RH  036%=      5-min Rain = 0
KAM1 120249Z 13005KT M03/M16 A3018 RMK A01 T10331162  RH  036%=      5-min Rain = 0
KAM1 120250Z 13005KT M03/M16 A3018 RMK A01 T10331161  RH  036%=      5-min Rain = 0
KAM1 120251Z 14005KT M03/M16 A3018 RMK A01 T10311161  RH  036%=      5-min Rain = 0
KAM1 120252Z 14005KT M03/M16 A3018 RMK A01 T10291160  RH  036%=      5-min Rain = 0
KAM1 120253Z 13004KT M03/M16 A3018 RMK A01 T10291161  RH  035%=      5-min Rain = 0
KAM1 120254Z 13004KT M03/M16 A3018 RMK A01 T10291162  RH  035%=      5-min Rain = 0
KAM1 120255Z 13004KT M03/M16 A3018 RMK A01 T10301162  RH  035%=      5-min Rain = 0
KAM1 120256Z 13004KT M03/M16 A3018 RMK A01 T10301163  RH  035%=      5-min Rain = 0
KAM1 120257Z 13004KT M03/M16 A3018 RMK A01 T10291163  RH  035%=      5-min Rain = 0
KAM1 120258Z 13004KT M03/M16 A3018 RMK A01 T10291164  RH  034%=      5-min Rain = 0
KAM1 120259Z 13004KT M03/M17 A3018 RMK A01 T10291165  RH  034%=      5-min Rain = 0
KAM1 120300Z 13004KT M03/M17 A3018 RMK A01 T10311167  RH  034%=      5-min Rain = 0
KAM1 120301Z 13004KT M03/M17 A3018 RMK A01 T10321167  RH  034%=      5-min Rain = 0
KAM1 120302Z 13004KT M03/M17 A3018 RMK A01 T10331168  RH  034%=      5-min Rain = 0
KAM1 120303Z 14004KT M03/M17 A3018 RMK A01 T10331168  RH  034%=      5-min Rain = 0
KAM1 120304Z 14004KT M03/M17 A3018 RMK A01 T10331169  RH  034%=      5-min Rain = 0
KAM1 120305Z 14004KT M03/M17 A3018 RMK A01 T10341169  RH  034%=      5-min Rain = 0
KAM1 120306Z 14004KT M03/M17 A3018 RMK A01 T10341170  RH  034%=      5-min Rain = 0
KAM1 120307Z 14004KT M03/M17 A3018 RMK A01 T10331170  RH  034%=      5-min Rain = 0
KAM1 120308Z 14004KT M03/M17 A3018 RMK A01 T10321169  RH  034%=      5-min Rain = 0
KAM1 120309Z 14004KT M03/M17 A3018 RMK A01 T10311169  RH  034%=      5-min Rain = 0
KAM1 120310Z 14004KT M03/M17 A3018 RMK A01 T10311169  RH  034%=      5-min Rain = 0
KAM1 120311Z 14004KT M03/M17 A3018 RMK A01 T10311169  RH  034%=      5-min Rain = 0
KAM1 120312Z 14004KT M03/M17 A3018 RMK A01 T10311169  RH  034%=      5-min Rain = 0
KAM1 120313Z 14004KT M03/M17 A3018 RMK A01 T10321169  RH  034%=      5-min Rain = 0
KAM1 120314Z 15004KT M03/M17 A3018 RMK A01 T10331170  RH  034%=      5-min Rain = 0
KAM1 120315Z 14004KT M04/M17 A3018 RMK A01 T10351171  RH  034%=      5-min Rain = 0
KAM1 120316Z 14004KT M04/M17 A3018 RMK A01 T10361170  RH  035%=      5-min Rain = 0
KAM1 120317Z 14005KT M04/M17 A3018 RMK A01 T10371170  RH  035%=      5-min Rain = 0
KAM1 120318Z 14004KT M04/M17 A3018 RMK A01 T10381170  RH  035%=      5-min Rain = 0
KAM1 120319Z 14004KT M04/M17 A3018 RMK A01 T10391170  RH  035%=      5-min Rain = 0
KAM1 120320Z 14005KT M04/M17 A3018 RMK A01 T10401170  RH  035%=      5-min Rain = 0
KAM1 120321Z 14005KT M04/M17 A3018 RMK A01 T10401170  RH  036%=      5-min Rain = 0
KAM1 120322Z 14005KT M04/M17 A3018 RMK A01 T10401169  RH  036%=      5-min Rain = 0
KAM1 120323Z 14005KT M04/M17 A3018 RMK A01 T10401168  RH  036%=      5-min Rain = 0
KAM1 120324Z 14005KT M04/M17 A3018 RMK A01 T10411169  RH  036%=      5-min Rain = 0
KAM1 120325Z 14005KT M04/M17 A3018 RMK A01 T10411168  RH  037%=      5-min Rain = 0
KAM1 120326Z 14005KT M04/M17 A3018 RMK A01 T10411167  RH  037%=      5-min Rain = 0
KAM1 120327Z 14005KT M04/M17 A3018 RMK A01 T10411168  RH  037%=      5-min Rain = 0
KAM1 120328Z 14005KT M04/M17 A3018 RMK A01 T10421168  RH  037%=      5-min Rain = 0
KAM1 120329Z 14006KT M04/M17 A3018 RMK A01 T10421168  RH  037%=      5-min Rain = 0
KAM1 120330Z 14006KT M04/M17 A3018 RMK A01 T10421168  RH  037%=      5-min Rain = 0
KAM1 120331Z 14006KT M04/M17 A3018 RMK A01 T10411168  RH  037%=      5-min Rain = 0
KAM1 120332Z 14006KT M04/M17 A3018 RMK A01 T10411168  RH  037%=      5-min Rain = 0
KAM1 120333Z 14005KT M04/M17 A3018 RMK A01 T10421169  RH  037%=      5-min Rain = 0
KAM1 120334Z 14006KT M04/M17 A3018 RMK A01 T10431169  RH  037%=      5-min Rain = 0
KAM1 120335Z 14006KT M04/M17 A3018 RMK A01 T10431169  RH  037%=      5-min Rain = 0
KAM1 120336Z 14006KT M04/M17 A3018 RMK A01 T10441170  RH  037%=      5-min Rain = 0
KAM1 120337Z 14006KT M04/M17 A3018 RMK A01 T10441170  RH  037%=      5-min Rain = 0
KAM1 120338Z 14006KT M04/M17 A3018 RMK A01 T10421169  RH  037%=      5-min Rain = 0
KAM1 120339Z 14006KT M04/M17 A3018 RMK A01 T10411168  RH  037%=      5-min Rain = 0
KAM1 120340Z 14005KT M04/M17 A3018 RMK A01 T10401168  RH  036%=      5-min Rain = 0
KAM1 120341Z 14005KT M04/M17 A3018 RMK A01 T10401168  RH  036%=      5-min Rain = 0
KAM1 120342Z 14005KT M04/M17 A3018 RMK A01 T10401168  RH  036%=      5-min Rain = 0
KAM1 120343Z 14005KT M04/M17 A3019 RMK A01 T10401169  RH  036%=      5-min Rain = 0
KAM1 120344Z 14006KT M04/M17 A3019 RMK A01 T10421170  RH  036%=      5-min Rain = 0
KAM1 120345Z 14006KT M04/M17 A3019 RMK A01 T10431170  RH  036%=      5-min Rain = 0
KAM1 120346Z 14006KT M05/M17 A3019 RMK A01 T10451171  RH  037%=      5-min Rain = 0
KAM1 120347Z 14005KT M05/M17 A3019 RMK A01 T10461170  RH  037%=      5-min Rain = 0
KAM1 120348Z 15005KT M05/M17 A3019 RMK A01 T10471169  RH  038%=      5-min Rain = 0
KAM1 120349Z 15005KT M05/M17 A3019 RMK A01 T10471168  RH  038%=      5-min Rain = 0
KAM1 120350Z 15005KT M05/M17 A3019 RMK A01 T10471167  RH  038%=      5-min Rain = 0
KAM1 120351Z 15005KT M05/M17 A3019 RMK A01 T10471168  RH  038%=      5-min Rain = 0
KAM1 120352Z 15005KT M05/M17 A3019 RMK A01 T10471168  RH  038%=      5-min Rain = 0
KAM1 120353Z 15006KT M05/M17 A3019 RMK A01 T10471170  RH  038%=      5-min Rain = 0
KAM1 120354Z 15007KT M05/M17 A3019 RMK A01 T10481172  RH  037%=      5-min Rain = 0
KAM1 120355Z 16007KT M05/M18 A3019 RMK A01 T10491175  RH  037%=      5-min Rain = 0
KAM1 120356Z 16007KT M05/M18 A3019 RMK A01 T10501176  RH  036%=      5-min Rain = 0
KAM1 120357Z 16007KT M05/M18 A3019 RMK A01 T10501177  RH  036%=      5-min Rain = 0
KAM1 120358Z 16007KT M05/M18 A3019 RMK A01 T10491176  RH  036%=      5-min Rain = 0
KAM1 120359Z 16007KT M05/M18 A3019 RMK A01 T10491176  RH  036%=      5-min Rain = 0
KAM1 120400Z 16007KT M05/M18 A3019 RMK A01 T10491176  RH  036%=      5-min Rain = 0
KAM1 120401Z 16006KT M05/M18 A3019 RMK A01 T10501177  RH  036%=      5-min Rain = 0
KAM1 120402Z 16006KT M05/M18 A3019 RMK A01 T10501176  RH  037%=      5-min Rain = 0
KAM1 120403Z 16006KT M05/M18 A3019 RMK A01 T10511176  RH  037%=      5-min Rain = 0
KAM1 120404Z 16007KT M05/M18 A3019 RMK A01 T10511176  RH  037%=      5-min Rain = 0
KAM1 120405Z 16006KT M05/M18 A3019 RMK A01 T10521176  RH  037%=      5-min Rain = 0
KAM1 120406Z 16006KT M05/M18 A3019 RMK A01 T10521175  RH  037%=      5-min Rain = 0
KAM1 120407Z 16006KT M05/M18 A3019 RMK A01 T10521175  RH  038%=      5-min Rain = 0
KAM1 120408Z 16006KT M05/M17 A3019 RMK A01 T10521174  RH  038%=      5-min Rain = 0
KAM1 120409Z 16007KT M05/M17 A3019 RMK A01 T10511172  RH  038%=      5-min Rain = 0
KAM1 120410Z 16007KT M05/M17 A3019 RMK A01 T10501172  RH  038%=      5-min Rain = 0
KAM1 120411Z 16007KT M05/M17 A3019 RMK A01 T10501172  RH  038%=      5-min Rain = 0
KAM1 120412Z 16007KT M05/M17 A3019 RMK A01 T10501172  RH  038%=      5-min Rain = 0
KAM1 120413Z 17007KT M05/M17 A3019 RMK A01 T10511172  RH  038%=      5-min Rain = 0
KAM1 120414Z 17007KT M05/M17 A3019 RMK A01 T10521173  RH  038%=      5-min Rain = 0
KAM1 120415Z 17007KT M05/M17 A3019 RMK A01 T10531173  RH  038%=      5-min Rain = 0
KAM1 120416Z 17007KT M05/M17 A3019 RMK A01 T10541173  RH  039%=      5-min Rain = 0
KAM1 120417Z 17006KT M06/M17 A3019 RMK A01 T10551173  RH  039%=      5-min Rain = 0
KAM1 120418Z 17006KT M06/M17 A3019 RMK A01 T10561173  RH  039%=      5-min Rain = 0
KAM1 120419Z 16006KT M06/M17 A3019 RMK A01 T10571173  RH  039%=      5-min Rain = 0
KAM1 120420Z 16006KT M06/M17 A3019 RMK A01 T10571172  RH  040%=      5-min Rain = 0
KAM1 120421Z 16006KT M06/M17 A3019 RMK A01 T10571172  RH  040%=      5-min Rain = 0
KAM1 120422Z 16006KT M06/M17 A3019 RMK A01 T10571172  RH  040%=      5-min Rain = 0
KAM1 120423Z 16006KT M06/M17 A3019 RMK A01 T10561171  RH  040%=      5-min Rain = 0
KAM1 120424Z 16007KT M05/M17 A3019 RMK A01 T10541169  RH  040%=      5-min Rain = 0
KAM1 120425Z 16006KT M05/M17 A3019 RMK A01 T10521168  RH  040%=      5-min Rain = 0
KAM1 120426Z 16007KT M05/M17 A3019 RMK A01 T10511168  RH  039%=      5-min Rain = 0
KAM1 120427Z 16007KT M05/M17 A3019 RMK A01 T10491168  RH  039%=      5-min Rain = 0
KAM1 120428Z 16006KT M05/M17 A3019 RMK A01 T10491168  RH  039%=      5-min Rain = 0
KAM1 120429Z 16007KT M05/M17 A3019 RMK A01 T10491169  RH  038%=      5-min Rain = 0
KAM1 120430Z 16007KT M05/M17 A3019 RMK A01 T10501170  RH  038%=      5-min Rain = 0
KAM1 120431Z 17007KT M05/M17 A3019 RMK A01 T10501170  RH  039%=      5-min Rain = 0
KAM1 120432Z 17008KT M05/M17 A3019 RMK A01 T10511170  RH  039%=      5-min Rain = 0
KAM1 120433Z 17008KT M05/M17 A3019 RMK A01 T10521171  RH  039%=      5-min Rain = 0
KAM1 120434Z 17008KT M05/M17 A3019 RMK A01 T10541172  RH  039%=      5-min Rain = 0
KAM1 120435Z 18008KT M06/M17 A3019 RMK A01 T10571173  RH  039%=      5-min Rain = 0
KAM1 120436Z 18008KT M06/M17 A3019 RMK A01 T10591174  RH  040%=      5-min Rain = 0
KAM1 120437Z 18008KT M06/M18 A3019 RMK A01 T10611175  RH  040%=      5-min Rain = 0
KAM1 120438Z 18008KT M06/M17 A3019 RMK A01 T10621174  RH  041%=      5-min Rain = 0
KAM1 120439Z 18008KT M06/M17 A3019 RMK A01 T10621172  RH  041%=      5-min Rain = 0
KAM1 120440Z 18008KT M06/M17 A3019 RMK A01 T10621172  RH  042%=      5-min Rain = 0
KAM1 120441Z 18008KT M06/M17 A3019 RMK A01 T10631171  RH  042%=      5-min Rain = 0
KAM1 120442Z 18008KT M06/M17 A3019 RMK A01 T10621170  RH  042%=      5-min Rain = 0
KAM1 120443Z 18008KT M06/M17 A3019 RMK A01 T10621168  RH  043%=      5-min Rain = 0
KAM1 120444Z 18008KT M06/M17 A3019 RMK A01 T10621167  RH  043%=      5-min Rain = 0
KAM1 120445Z 18008KT M06/M17 A3019 RMK A01 T10611166  RH  043%=      5-min Rain = 0
KAM1 120446Z 18007KT M06/M16 A3019 RMK A01 T10611164  RH  044%=      5-min Rain = 0
KAM1 120447Z 18007KT M06/M16 A3019 RMK A01 T10601163  RH  044%=      5-min Rain = 0
KAM1 120448Z 18007KT M06/M16 A3019 RMK A01 T10601162  RH  044%=      5-min Rain = 0
KAM1 120449Z 18007KT M06/M16 A3019 RMK A01 T10591161  RH  044%=      5-min Rain = 0
KAM1 120450Z 18008KT M06/M16 A3019 RMK A01 T10591160  RH  045%=      5-min Rain = 0
KAM1 120451Z 18008KT M06/M16 A3019 RMK A01 T10591159  RH  045%=      5-min Rain = 0
KAM1 120452Z 18007KT M06/M16 A3019 RMK A01 T10591158  RH  045%=      5-min Rain = 0
KAM1 120453Z 18007KT M06/M16 A302 RMK A01 T10591158  RH  046%=      5-min Rain = 0
KAM1 120454Z 18007KT M06/M16 A302 RMK A01 T10591158  RH  046%=      5-min Rain = 0
KAM1 120455Z 18007KT M06/M16 A302 RMK A01 T10601158  RH  046%=      5-min Rain = 0
KAM1 120456Z 17007KT M06/M16 A302 RMK A01 T10601158  RH  046%=      5-min Rain = 0
KAM1 120457Z 17007KT M06/M16 A302 RMK A01 T10591158  RH  045%=      5-min Rain = 0
KAM1 120458Z 17007KT M06/M16 A302 RMK A01 T10581158  RH  045%=      5-min Rain = 0
KAM1 120459Z 17007KT M06/M16 A302 RMK A01 T10581159  RH  045%=      5-min Rain = 0
KAM1 120500Z 17007KT M06/M16 A302 RMK A01 T10571159  RH  045%=      5-min Rain = 0
KAM1 120501Z 17007KT M06/M16 A302 RMK A01 T10571159  RH  044%=      5-min Rain = 0
KAM1 120502Z 16008KT M06/M16 A302 RMK A01 T10561159  RH  044%=      5-min Rain = 0
KAM1 120503Z 16008KT M06/M16 A302 RMK A01 T10561157  RH  045%=      5-min Rain = 0
KAM1 120504Z 16008KT M06/M16 A302 RMK A01 T10551156  RH  045%=      5-min Rain = 0
KAM1 120505Z 16008KT M05/M16 A302 RMK A01 T10531155  RH  045%=      5-min Rain = 0
KAM1 120506Z 16008KT M05/M15 A302 RMK A01 T10531154  RH  045%=      5-min Rain = 0
KAM1 120507Z 17008KT M05/M15 A302 RMK A01 T10521153  RH  045%=      5-min Rain = 0
KAM1 120508Z 17007KT M05/M15 A302 RMK A01 T10521153  RH  045%=      5-min Rain = 0
KAM1 120509Z 18007KT M05/M15 A302 RMK A01 T10521152  RH  045%=      5-min Rain = 0
KAM1 120510Z 18007KT M05/M15 A302 RMK A01 T10521152  RH  045%=      5-min Rain = 0
KAM1 120511Z 18007KT M05/M15 A302 RMK A01 T10521152  RH  045%=      5-min Rain = 0
KAM1 120512Z 18007KT M05/M15 A302 RMK A01 T10521151  RH  045%=      5-min Rain = 0
KAM1 120513Z 17007KT M05/M15 A302 RMK A01 T10521152  RH  045%=      5-min Rain = 0
KAM1 120514Z 17007KT M05/M15 A302 RMK A01 T10511152  RH  045%=      5-min Rain = 0
KAM1 120515Z 17007KT M05/M15 A302 RMK A01 T10511152  RH  045%=      5-min Rain = 0
KAM1 120516Z 17007KT M05/M15 A302 RMK A01 T10511152  RH  045%=      5-min Rain = 0
KAM1 120517Z 17007KT M05/M15 A302 RMK A01 T10511152  RH  045%=      5-min Rain = 0
KAM1 120518Z 17007KT M05/M15 A302 RMK A01 T10511153  RH  045%=      5-min Rain = 0
KAM1 120519Z 17007KT M05/M15 A302 RMK A01 T10511153  RH  045%=      5-min Rain = 0
KAM1 120520Z 17008KT M05/M15 A302 RMK A01 T10511153  RH  045%=      5-min Rain = 0
KAM1 120521Z 17008KT M05/M15 A302 RMK A01 T10521153  RH  045%=      5-min Rain = 0
KAM1 120522Z 17008KT M05/M15 A302 RMK A01 T10531154  RH  045%=      5-min Rain = 0
KAM1 120523Z 17008KT M05/M15 A302 RMK A01 T10531154  RH  045%=      5-min Rain = 0
KAM1 120524Z 17008KT M05/M15 A302 RMK A01 T10541154  RH  045%=      5-min Rain = 0
KAM1 120525Z 17008KT M06/M15 A302 RMK A01 T10551154  RH  046%=      5-min Rain = 0
KAM1 120526Z 17008KT M06/M15 A302 RMK A01 T10561154  RH  046%=      5-min Rain = 0
KAM1 120527Z 17008KT M06/M15 A302 RMK A01 T10571154  RH  046%=      5-min Rain = 0
KAM1 120528Z 17008KT M06/M15 A302 RMK A01 T10571154  RH  046%=      5-min Rain = 0
KAM1 120529Z 17009KT M06/M15 A302 RMK A01 T10571154  RH  047%=      5-min Rain = 0
KAM1 120530Z 17009KT M06/M15 A302 RMK A01 T10561152  RH  047%=      5-min Rain = 0
KAM1 120531Z 17009KT M05/M15 A302 RMK A01 T10541150  RH  047%=      5-min Rain = 0
KAM1 120532Z 17009KT M05/M15 A302 RMK A01 T10521149  RH  047%=      5-min Rain = 0
KAM1 120533Z 16009KT M05/M15 A302 RMK A01 T10511149  RH  046%=      5-min Rain = 0
KAM1 120534Z 16009KT M05/M15 A302 RMK A01 T10501149  RH  046%=      5-min Rain = 0
KAM1 120535Z 16008KT M05/M15 A302 RMK A01 T10491148  RH  046%=      5-min Rain = 0
KAM1 120536Z 16008KT M05/M15 A302 RMK A01 T10491149  RH  045%=      5-min Rain = 0
KAM1 120537Z 16009KT M05/M15 A302 RMK A01 T10491149  RH  045%=      5-min Rain = 0
KAM1 120538Z 16009KT M05/M15 A302 RMK A01 T10481149  RH  045%=      5-min Rain = 0
KAM1 120539Z 16008KT M05/M15 A302 RMK A01 T10471149  RH  045%=      5-min Rain = 0
KAM1 120540Z 16008KT M05/M15 A302 RMK A01 T10471148  RH  045%=      5-min Rain = 0
KAM1 120541Z 16009KT M05/M15 A302 RMK A01 T10451148  RH  045%=      5-min Rain = 0
KAM1 120542Z 16009KT M05/M15 A302 RMK A01 T10451148  RH  044%=      5-min Rain = 0
KAM1 120543Z 16009KT M05/M15 A302 RMK A01 T10451148  RH  044%=      5-min Rain = 0
KAM1 120544Z 16009KT M04/M15 A302 RMK A01 T10441148  RH  044%=      5-min Rain = 0
KAM1 120545Z 16009KT M04/M15 A302 RMK A01 T10441148  RH  044%=      5-min Rain = 0
KAM1 120546Z 16009KT M04/M15 A302 RMK A01 T10441149  RH  044%=      5-min Rain = 0
KAM1 120547Z 16008KT M04/M15 A302 RMK A01 T10441149  RH  044%=      5-min Rain = 0
KAM1 120548Z 16009KT M04/M15 A3021 RMK A01 T10441149  RH  044%=      5-min Rain = 0
KAM1 120549Z 16008KT M04/M15 A3021 RMK A01 T10441149  RH  044%=      5-min Rain = 0
KAM1 120550Z 16008KT M04/M15 A3021 RMK A01 T10441149  RH  044%=      5-min Rain = 0
KAM1 120551Z 16008KT M05/M15 A3021 RMK A01 T10451150  RH  044%=      5-min Rain = 0
KAM1 120552Z 17008KT M05/M15 A3021 RMK A01 T10461151  RH  044%=      5-min Rain = 0
KAM1 120553Z 17008KT M05/M15 A3021 RMK A01 T10471151  RH  044%=      5-min Rain = 0
KAM1 120554Z 17009KT M05/M15 A302 RMK A01 T10471151  RH  044%=      5-min Rain = 0
KAM1 120555Z 17009KT M05/M15 A3021 RMK A01 T10481151  RH  044%=      5-min Rain = 0
KAM1 120556Z 17009KT M05/M15 A3021 RMK A01 T10491152  RH  044%=      5-min Rain = 0
KAM1 120557Z 17009KT M05/M15 A3021 RMK A01 T10501152  RH  045%=      5-min Rain = 0
KAM1 120558Z 17009KT M05/M15 A3021 RMK A01 T10511153  RH  045%=      5-min Rain = 0
KAM1 120559Z 17009KT M05/M15 A3021 RMK A01 T10521152  RH  045%=      5-min Rain = 0

Page generated in 0.0779 seconds.